<?xml version="1.0" encoding="UTF-8" standalone="no" ?>
<gpx xmlns="http://www.topografix.com/GPX/1/1" xmlns:xsi="http://www.w3.org/2001/XMLSchema-instance" xsi:schemaLocation="http://www.topografix.com/GPX/1/1 http://www.topografix.com/GPX/1/1/gpx.xsd" version="1.1" creator="VisuGPX - https://www.visugpx.com">
  <metadata>
    <name>gr53prempart</name>
    <desc><![CDATA[randonnée qui se fait sur la crête du massif des vosges]]></desc>
  </metadata>
  <trk>
    <name><![CDATA[GR53 De Wissembourg à La Petite-Pierre (Bas-Rhin) (2016)]]></name>
    <cmt><![CDATA[Randonnée avec le GR53 à travers le Bas-Rhin de Wissembourg à La Petite-Pierre. Gîtes d'étapes, Chambres d'hôtes, Hôtels, Camping, Refuges, Auberges.]]></cmt>
    <desc><![CDATA[Randonnée avec le GR53 à travers le Bas-Rhin de Wissembourg à La Petite-Pierre. Gîtes d'étapes, Chambres d'hôtes, Hôtels, Camping, Refuges, Auberges.]]></desc>
    <trkseg>
      <trkpt lat="49.03464" lon="7.94092">
        <ele>164</ele>
        <time>2016-08-22T13:54:38Z</time>
      </trkpt>
      <trkpt lat="49.03586" lon="7.93937">
        <ele>164</ele>
        <time>2016-08-22T13:54:58Z</time>
      </trkpt>
      <trkpt lat="49.03582" lon="7.93843">
        <ele>169</ele>
        <time>2016-08-22T13:55:18Z</time>
      </trkpt>
      <trkpt lat="49.03599" lon="7.93659">
        <ele>177</ele>
        <time>2016-08-22T13:55:38Z</time>
      </trkpt>
      <trkpt lat="49.03608" lon="7.93477">
        <ele>177</ele>
        <time>2016-08-22T13:55:58Z</time>
      </trkpt>
      <trkpt lat="49.03532" lon="7.93513">
        <ele>182</ele>
        <time>2016-08-22T13:56:18Z</time>
      </trkpt>
      <trkpt lat="49.03468" lon="7.93515">
        <ele>186</ele>
        <time>2016-08-22T13:56:38Z</time>
      </trkpt>
      <trkpt lat="49.03363" lon="7.93443">
        <ele>195</ele>
        <time>2016-08-22T13:56:58Z</time>
      </trkpt>
      <trkpt lat="49.0328" lon="7.93361">
        <ele>203</ele>
        <time>2016-08-22T13:57:18Z</time>
      </trkpt>
      <trkpt lat="49.03303" lon="7.93309">
        <ele>205</ele>
        <time>2016-08-22T13:57:38Z</time>
      </trkpt>
      <trkpt lat="49.03267" lon="7.93164">
        <ele>212</ele>
        <time>2016-08-22T13:57:58Z</time>
      </trkpt>
      <trkpt lat="49.03266" lon="7.92945">
        <ele>226</ele>
        <time>2016-08-22T13:58:18Z</time>
      </trkpt>
      <trkpt lat="49.03289" lon="7.92893">
        <ele>232</ele>
        <time>2016-08-22T13:58:38Z</time>
      </trkpt>
      <trkpt lat="49.03268" lon="7.92816">
        <ele>238</ele>
        <time>2016-08-22T13:58:58Z</time>
      </trkpt>
      <trkpt lat="49.03294" lon="7.92646">
        <ele>247</ele>
        <time>2016-08-22T13:59:18Z</time>
      </trkpt>
      <trkpt lat="49.03378" lon="7.92582">
        <ele>245</ele>
        <time>2016-08-22T13:59:38Z</time>
      </trkpt>
      <trkpt lat="49.03352" lon="7.92508">
        <ele>248</ele>
        <time>2016-08-22T13:59:58Z</time>
      </trkpt>
      <trkpt lat="49.0335" lon="7.92439">
        <ele>249</ele>
        <time>2016-08-22T14:00:18Z</time>
      </trkpt>
      <trkpt lat="49.03282" lon="7.92318">
        <ele>254</ele>
        <time>2016-08-22T14:00:38Z</time>
      </trkpt>
      <trkpt lat="49.03301" lon="7.92256">
        <ele>254</ele>
        <time>2016-08-22T14:00:58Z</time>
      </trkpt>
      <trkpt lat="49.0323" lon="7.92197">
        <ele>260</ele>
        <time>2016-08-22T14:01:18Z</time>
      </trkpt>
      <trkpt lat="49.03153" lon="7.91964">
        <ele>266</ele>
        <time>2016-08-22T14:01:38Z</time>
      </trkpt>
      <trkpt lat="49.03138" lon="7.91845">
        <ele>269</ele>
        <time>2016-08-22T14:01:58Z</time>
      </trkpt>
      <trkpt lat="49.03063" lon="7.91739">
        <ele>274</ele>
        <time>2016-08-22T14:02:18Z</time>
      </trkpt>
      <trkpt lat="49.03008" lon="7.91589">
        <ele>276</ele>
        <time>2016-08-22T14:02:38Z</time>
      </trkpt>
      <trkpt lat="49.02946" lon="7.91376">
        <ele>278</ele>
        <time>2016-08-22T14:02:58Z</time>
      </trkpt>
      <trkpt lat="49.02894" lon="7.91091">
        <ele>284</ele>
        <time>2016-08-22T14:03:18Z</time>
      </trkpt>
      <trkpt lat="49.02866" lon="7.90874">
        <ele>288</ele>
        <time>2016-08-22T14:03:38Z</time>
      </trkpt>
      <trkpt lat="49.02838" lon="7.90426">
        <ele>310</ele>
        <time>2016-08-22T14:03:58Z</time>
      </trkpt>
      <trkpt lat="49.02852" lon="7.9034">
        <ele>315</ele>
        <time>2016-08-22T14:04:18Z</time>
      </trkpt>
      <trkpt lat="49.02842" lon="7.90209">
        <ele>338</ele>
        <time>2016-08-22T14:04:38Z</time>
      </trkpt>
      <trkpt lat="49.02815" lon="7.90203">
        <ele>338</ele>
        <time>2016-08-22T14:04:58Z</time>
      </trkpt>
      <trkpt lat="49.0277" lon="7.9011">
        <ele>345</ele>
        <time>2016-08-22T14:05:18Z</time>
      </trkpt>
      <trkpt lat="49.02817" lon="7.90082">
        <ele>355</ele>
        <time>2016-08-22T14:05:38Z</time>
      </trkpt>
      <trkpt lat="49.02837" lon="7.89999">
        <ele>363</ele>
        <time>2016-08-22T14:05:58Z</time>
      </trkpt>
      <trkpt lat="49.02883" lon="7.89944">
        <ele>364</ele>
        <time>2016-08-22T14:06:18Z</time>
      </trkpt>
      <trkpt lat="49.0287" lon="7.89861">
        <ele>368</ele>
        <time>2016-08-22T14:06:38Z</time>
      </trkpt>
      <trkpt lat="49.02893" lon="7.89815">
        <ele>373</ele>
        <time>2016-08-22T14:06:58Z</time>
      </trkpt>
      <trkpt lat="49.02941" lon="7.89537">
        <ele>392</ele>
        <time>2016-08-22T14:07:18Z</time>
      </trkpt>
      <trkpt lat="49.02943" lon="7.89363">
        <ele>402</ele>
        <time>2016-08-22T14:07:38Z</time>
      </trkpt>
      <trkpt lat="49.02904" lon="7.89151">
        <ele>429</ele>
        <time>2016-08-22T14:07:58Z</time>
      </trkpt>
      <trkpt lat="49.02949" lon="7.8917">
        <ele>428</ele>
        <time>2016-08-22T14:08:18Z</time>
      </trkpt>
      <trkpt lat="49.02891" lon="7.88968">
        <ele>468</ele>
        <time>2016-08-22T14:08:38Z</time>
      </trkpt>
      <trkpt lat="49.02969" lon="7.89014">
        <ele>465</ele>
        <time>2016-08-22T14:08:58Z</time>
      </trkpt>
      <trkpt lat="49.02933" lon="7.88907">
        <ele>483</ele>
        <time>2016-08-22T14:09:18Z</time>
      </trkpt>
      <trkpt lat="49.02898" lon="7.88852">
        <ele>487</ele>
        <time>2016-08-22T14:09:38Z</time>
      </trkpt>
      <trkpt lat="49.029" lon="7.88775">
        <ele>493</ele>
        <time>2016-08-22T14:09:58Z</time>
      </trkpt>
      <trkpt lat="49.02763" lon="7.88538">
        <ele>508</ele>
        <time>2016-08-22T14:10:18Z</time>
      </trkpt>
      <trkpt lat="49.0273" lon="7.88696">
        <ele>501</ele>
        <time>2016-08-22T14:10:38Z</time>
      </trkpt>
      <trkpt lat="49.02687" lon="7.88708">
        <ele>496</ele>
        <time>2016-08-22T14:10:58Z</time>
      </trkpt>
      <trkpt lat="49.02687" lon="7.88769">
        <ele>485</ele>
        <time>2016-08-22T14:11:18Z</time>
      </trkpt>
      <trkpt lat="49.02639" lon="7.88724">
        <ele>478</ele>
        <time>2016-08-22T14:11:38Z</time>
      </trkpt>
      <trkpt lat="49.02615" lon="7.88716">
        <ele>475</ele>
        <time>2016-08-22T14:11:58Z</time>
      </trkpt>
      <trkpt lat="49.02589" lon="7.88638">
        <ele>476</ele>
        <time>2016-08-22T14:12:18Z</time>
      </trkpt>
      <trkpt lat="49.02583" lon="7.88546">
        <ele>455</ele>
        <time>2016-08-22T14:12:38Z</time>
      </trkpt>
      <trkpt lat="49.02553" lon="7.88549">
        <ele>453</ele>
        <time>2016-08-22T14:12:58Z</time>
      </trkpt>
      <trkpt lat="49.02562" lon="7.88533">
        <ele>452</ele>
        <time>2016-08-22T14:13:18Z</time>
      </trkpt>
      <trkpt lat="49.02546" lon="7.8853">
        <ele>451</ele>
        <time>2016-08-22T14:13:38Z</time>
      </trkpt>
      <trkpt lat="49.02509" lon="7.8853">
        <ele>446</ele>
        <time>2016-08-22T14:13:58Z</time>
      </trkpt>
      <trkpt lat="49.02472" lon="7.88563">
        <ele>442</ele>
        <time>2016-08-22T14:14:18Z</time>
      </trkpt>
      <trkpt lat="49.02461" lon="7.88459">
        <ele>433</ele>
        <time>2016-08-22T14:14:38Z</time>
      </trkpt>
      <trkpt lat="49.02439" lon="7.88431">
        <ele>432</ele>
        <time>2016-08-22T14:14:58Z</time>
      </trkpt>
      <trkpt lat="49.02372" lon="7.88168">
        <ele>412</ele>
        <time>2016-08-22T14:15:18Z</time>
      </trkpt>
      <trkpt lat="49.0236" lon="7.88067">
        <ele>404</ele>
        <time>2016-08-22T14:15:38Z</time>
      </trkpt>
      <trkpt lat="49.02356" lon="7.8787">
        <ele>397</ele>
        <time>2016-08-22T14:15:58Z</time>
      </trkpt>
      <trkpt lat="49.02342" lon="7.87772">
        <ele>392</ele>
        <time>2016-08-22T14:16:18Z</time>
      </trkpt>
      <trkpt lat="49.02259" lon="7.87595">
        <ele>391</ele>
        <time>2016-08-22T14:16:38Z</time>
      </trkpt>
      <trkpt lat="49.02243" lon="7.87574">
        <ele>395</ele>
        <time>2016-08-22T14:16:58Z</time>
      </trkpt>
      <trkpt lat="49.02238" lon="7.87476">
        <ele>386</ele>
        <time>2016-08-22T14:17:18Z</time>
      </trkpt>
      <trkpt lat="49.02224" lon="7.87386">
        <ele>384</ele>
        <time>2016-08-22T14:17:38Z</time>
      </trkpt>
      <trkpt lat="49.02293" lon="7.87169">
        <ele>373</ele>
        <time>2016-08-22T14:17:58Z</time>
      </trkpt>
      <trkpt lat="49.02296" lon="7.87075">
        <ele>373</ele>
        <time>2016-08-22T14:18:18Z</time>
      </trkpt>
      <trkpt lat="49.02288" lon="7.86998">
        <ele>372</ele>
        <time>2016-08-22T14:18:38Z</time>
      </trkpt>
      <trkpt lat="49.02234" lon="7.86892">
        <ele>374</ele>
        <time>2016-08-22T14:18:58Z</time>
      </trkpt>
      <trkpt lat="49.02195" lon="7.86849">
        <ele>373</ele>
        <time>2016-08-22T14:19:18Z</time>
      </trkpt>
      <trkpt lat="49.02092" lon="7.86784">
        <ele>365</ele>
        <time>2016-08-22T14:19:38Z</time>
      </trkpt>
      <trkpt lat="49.02077" lon="7.86735">
        <ele>368</ele>
        <time>2016-08-22T14:19:58Z</time>
      </trkpt>
      <trkpt lat="49.02141" lon="7.8655">
        <ele>367</ele>
        <time>2016-08-22T14:20:18Z</time>
      </trkpt>
      <trkpt lat="49.02172" lon="7.8648">
        <ele>360</ele>
        <time>2016-08-22T14:20:38Z</time>
      </trkpt>
      <trkpt lat="49.02169" lon="7.86396">
        <ele>363</ele>
        <time>2016-08-22T14:20:58Z</time>
      </trkpt>
      <trkpt lat="49.02178" lon="7.86394">
        <ele>362</ele>
        <time>2016-08-22T14:21:18Z</time>
      </trkpt>
      <trkpt lat="49.0215" lon="7.86253">
        <ele>361</ele>
        <time>2016-08-22T14:21:38Z</time>
      </trkpt>
      <trkpt lat="49.02106" lon="7.86177">
        <ele>356</ele>
        <time>2016-08-22T14:21:58Z</time>
      </trkpt>
      <trkpt lat="49.02039" lon="7.86033">
        <ele>347</ele>
        <time>2016-08-22T14:22:18Z</time>
      </trkpt>
      <trkpt lat="49.01992" lon="7.85882">
        <ele>349</ele>
        <time>2016-08-22T14:22:38Z</time>
      </trkpt>
      <trkpt lat="49.01997" lon="7.85689">
        <ele>354</ele>
        <time>2016-08-22T14:22:58Z</time>
      </trkpt>
      <trkpt lat="49.01836" lon="7.85108">
        <ele>359</ele>
        <time>2016-08-22T14:23:18Z</time>
      </trkpt>
      <trkpt lat="49.01982" lon="7.85126">
        <ele>363</ele>
        <time>2016-08-22T14:23:38Z</time>
      </trkpt>
      <trkpt lat="49.02096" lon="7.851">
        <ele>369</ele>
        <time>2016-08-22T14:23:58Z</time>
      </trkpt>
      <trkpt lat="49.02258" lon="7.84935">
        <ele>369</ele>
        <time>2016-08-22T14:24:18Z</time>
      </trkpt>
      <trkpt lat="49.0245" lon="7.84057">
        <ele>357</ele>
        <time>2016-08-22T14:24:38Z</time>
      </trkpt>
      <trkpt lat="49.02531" lon="7.83883">
        <ele>354</ele>
        <time>2016-08-22T14:24:58Z</time>
      </trkpt>
      <trkpt lat="49.02583" lon="7.83814">
        <ele>348</ele>
        <time>2016-08-22T14:25:18Z</time>
      </trkpt>
      <trkpt lat="49.02613" lon="7.83661">
        <ele>326</ele>
        <time>2016-08-22T14:25:38Z</time>
      </trkpt>
      <trkpt lat="49.02627" lon="7.83503">
        <ele>318</ele>
        <time>2016-08-22T14:25:58Z</time>
      </trkpt>
      <trkpt lat="49.02628" lon="7.83207">
        <ele>297</ele>
        <time>2016-08-22T14:26:18Z</time>
      </trkpt>
      <trkpt lat="49.026" lon="7.83093">
        <ele>293</ele>
        <time>2016-08-22T14:26:38Z</time>
      </trkpt>
      <trkpt lat="49.02621" lon="7.83049">
        <ele>292</ele>
        <time>2016-08-22T14:26:58Z</time>
      </trkpt>
      <trkpt lat="49.02716" lon="7.83023">
        <ele>291</ele>
        <time>2016-08-22T14:27:18Z</time>
      </trkpt>
      <trkpt lat="49.02718" lon="7.82941">
        <ele>285</ele>
        <time>2016-08-22T14:27:38Z</time>
      </trkpt>
      <trkpt lat="49.02745" lon="7.82744">
        <ele>265</ele>
        <time>2016-08-22T14:27:58Z</time>
      </trkpt>
      <trkpt lat="49.02777" lon="7.82589">
        <ele>259</ele>
        <time>2016-08-22T14:28:18Z</time>
      </trkpt>
      <trkpt lat="49.028" lon="7.8254">
        <ele>258</ele>
        <time>2016-08-22T14:28:38Z</time>
      </trkpt>
      <trkpt lat="49.02852" lon="7.82588">
        <ele>260</ele>
        <time>2016-08-22T14:28:58Z</time>
      </trkpt>
      <trkpt lat="49.02934" lon="7.82561">
        <ele>266</ele>
        <time>2016-08-22T14:29:18Z</time>
      </trkpt>
      <trkpt lat="49.03" lon="7.82494">
        <ele>272</ele>
        <time>2016-08-22T14:29:38Z</time>
      </trkpt>
      <trkpt lat="49.03056" lon="7.82377">
        <ele>269</ele>
        <time>2016-08-22T14:29:58Z</time>
      </trkpt>
      <trkpt lat="49.03088" lon="7.82313">
        <ele>268</ele>
        <time>2016-08-22T14:30:18Z</time>
      </trkpt>
      <trkpt lat="49.03143" lon="7.8229">
        <ele>267</ele>
        <time>2016-08-22T14:30:38Z</time>
      </trkpt>
      <trkpt lat="49.03239" lon="7.82328">
        <ele>267</ele>
        <time>2016-08-22T14:30:58Z</time>
      </trkpt>
      <trkpt lat="49.03289" lon="7.82261">
        <ele>266</ele>
        <time>2016-08-22T14:31:18Z</time>
      </trkpt>
      <trkpt lat="49.03351" lon="7.82229">
        <ele>269</ele>
        <time>2016-08-22T14:31:38Z</time>
      </trkpt>
      <trkpt lat="49.03371" lon="7.82193">
        <ele>270</ele>
        <time>2016-08-22T14:31:58Z</time>
      </trkpt>
      <trkpt lat="49.03422" lon="7.82171">
        <ele>275</ele>
        <time>2016-08-22T14:32:18Z</time>
      </trkpt>
      <trkpt lat="49.03478" lon="7.82047">
        <ele>285</ele>
        <time>2016-08-22T14:32:38Z</time>
      </trkpt>
      <trkpt lat="49.03512" lon="7.81917">
        <ele>289</ele>
        <time>2016-08-22T14:32:58Z</time>
      </trkpt>
      <trkpt lat="49.03565" lon="7.818">
        <ele>295</ele>
        <time>2016-08-22T14:33:18Z</time>
      </trkpt>
      <trkpt lat="49.03653" lon="7.81712">
        <ele>298</ele>
        <time>2016-08-22T14:33:38Z</time>
      </trkpt>
      <trkpt lat="49.03755" lon="7.81646">
        <ele>302</ele>
        <time>2016-08-22T14:33:58Z</time>
      </trkpt>
      <trkpt lat="49.03832" lon="7.81637">
        <ele>303</ele>
        <time>2016-08-22T14:34:18Z</time>
      </trkpt>
      <trkpt lat="49.03897" lon="7.81656">
        <ele>297</ele>
        <time>2016-08-22T14:34:38Z</time>
      </trkpt>
      <trkpt lat="49.04049" lon="7.81443">
        <ele>299</ele>
        <time>2016-08-22T14:34:58Z</time>
      </trkpt>
      <trkpt lat="49.04118" lon="7.81373">
        <ele>297</ele>
        <time>2016-08-22T14:35:18Z</time>
      </trkpt>
      <trkpt lat="49.04186" lon="7.81352">
        <ele>302</ele>
        <time>2016-08-22T14:35:38Z</time>
      </trkpt>
      <trkpt lat="49.04283" lon="7.81379">
        <ele>302</ele>
        <time>2016-08-22T14:35:58Z</time>
      </trkpt>
      <trkpt lat="49.04335" lon="7.81317">
        <ele>312</ele>
        <time>2016-08-22T14:36:18Z</time>
      </trkpt>
      <trkpt lat="49.04392" lon="7.81306">
        <ele>318</ele>
        <time>2016-08-22T14:36:38Z</time>
      </trkpt>
      <trkpt lat="49.04508" lon="7.81325">
        <ele>315</ele>
        <time>2016-08-22T14:36:58Z</time>
      </trkpt>
      <trkpt lat="49.04629" lon="7.8127">
        <ele>316</ele>
        <time>2016-08-22T14:37:18Z</time>
      </trkpt>
      <trkpt lat="49.04696" lon="7.81275">
        <ele>317</ele>
        <time>2016-08-22T14:37:38Z</time>
      </trkpt>
      <trkpt lat="49.04844" lon="7.81258">
        <ele>319</ele>
        <time>2016-08-22T14:37:58Z</time>
      </trkpt>
      <trkpt lat="49.04904" lon="7.81216">
        <ele>326</ele>
        <time>2016-08-22T14:38:18Z</time>
      </trkpt>
      <trkpt lat="49.04948" lon="7.81157">
        <ele>332</ele>
        <time>2016-08-22T14:38:38Z</time>
      </trkpt>
      <trkpt lat="49.04982" lon="7.81145">
        <ele>331</ele>
        <time>2016-08-22T14:38:58Z</time>
      </trkpt>
      <trkpt lat="49.04992" lon="7.81099">
        <ele>330</ele>
        <time>2016-08-22T14:39:18Z</time>
      </trkpt>
      <trkpt lat="49.05071" lon="7.80959">
        <ele>337</ele>
        <time>2016-08-22T14:39:38Z</time>
      </trkpt>
      <trkpt lat="49.052" lon="7.80772">
        <ele>331</ele>
        <time>2016-08-22T14:39:58Z</time>
      </trkpt>
      <trkpt lat="49.05205" lon="7.8063">
        <ele>336</ele>
        <time>2016-08-22T14:40:18Z</time>
      </trkpt>
      <trkpt lat="49.052" lon="7.805">
        <ele>343</ele>
        <time>2016-08-22T14:40:38Z</time>
      </trkpt>
      <trkpt lat="49.05247" lon="7.80323">
        <ele>337</ele>
        <time>2016-08-22T14:40:58Z</time>
      </trkpt>
      <trkpt lat="49.05346" lon="7.80023">
        <ele>347</ele>
        <time>2016-08-22T14:41:18Z</time>
      </trkpt>
      <trkpt lat="49.05427" lon="7.7986">
        <ele>348</ele>
        <time>2016-08-22T14:41:38Z</time>
      </trkpt>
      <trkpt lat="49.0535" lon="7.79439">
        <ele>345</ele>
        <time>2016-08-22T14:41:58Z</time>
      </trkpt>
      <trkpt lat="49.05321" lon="7.79338">
        <ele>347</ele>
        <time>2016-08-22T14:42:18Z</time>
      </trkpt>
      <trkpt lat="49.05315" lon="7.79247">
        <ele>346</ele>
        <time>2016-08-22T14:42:38Z</time>
      </trkpt>
      <trkpt lat="49.0525" lon="7.791">
        <ele>362</ele>
        <time>2016-08-22T14:42:58Z</time>
      </trkpt>
      <trkpt lat="49.05321" lon="7.79113">
        <ele>359</ele>
        <time>2016-08-22T14:43:18Z</time>
      </trkpt>
      <trkpt lat="49.0518" lon="7.78971">
        <ele>383</ele>
        <time>2016-08-22T14:43:38Z</time>
      </trkpt>
      <trkpt lat="49.05082" lon="7.78838">
        <ele>398</ele>
        <time>2016-08-22T14:43:58Z</time>
      </trkpt>
      <trkpt lat="49.05042" lon="7.78746">
        <ele>407</ele>
        <time>2016-08-22T14:44:18Z</time>
      </trkpt>
      <trkpt lat="49.05072" lon="7.78664">
        <ele>416</ele>
        <time>2016-08-22T14:44:38Z</time>
      </trkpt>
      <trkpt lat="49.0517" lon="7.78581">
        <ele>443</ele>
        <time>2016-08-22T14:44:58Z</time>
      </trkpt>
      <trkpt lat="49.05329" lon="7.78414">
        <ele>457</ele>
        <time>2016-08-22T14:45:18Z</time>
      </trkpt>
      <trkpt lat="49.05416" lon="7.7826">
        <ele>469</ele>
        <time>2016-08-22T14:45:38Z</time>
      </trkpt>
      <trkpt lat="49.0546" lon="7.78124">
        <ele>471</ele>
        <time>2016-08-22T14:45:58Z</time>
      </trkpt>
      <trkpt lat="49.05435" lon="7.7804">
        <ele>458</ele>
        <time>2016-08-22T14:46:18Z</time>
      </trkpt>
      <trkpt lat="49.05296" lon="7.77881">
        <ele>430</ele>
        <time>2016-08-22T14:46:38Z</time>
      </trkpt>
      <trkpt lat="49.05152" lon="7.77791">
        <ele>417</ele>
        <time>2016-08-22T14:46:58Z</time>
      </trkpt>
      <trkpt lat="49.05046" lon="7.77639">
        <ele>399</ele>
        <time>2016-08-22T14:47:18Z</time>
      </trkpt>
      <trkpt lat="49.04972" lon="7.77568">
        <ele>388</ele>
        <time>2016-08-22T14:47:38Z</time>
      </trkpt>
      <trkpt lat="49.04896" lon="7.77509">
        <ele>377</ele>
        <time>2016-08-22T14:47:58Z</time>
      </trkpt>
      <trkpt lat="49.04848" lon="7.77493">
        <ele>364</ele>
        <time>2016-08-22T14:48:18Z</time>
      </trkpt>
      <trkpt lat="49.04781" lon="7.77439">
        <ele>351</ele>
        <time>2016-08-22T14:48:38Z</time>
      </trkpt>
      <trkpt lat="49.04736" lon="7.77452">
        <ele>342</ele>
        <time>2016-08-22T14:48:58Z</time>
      </trkpt>
      <trkpt lat="49.0471" lon="7.77517">
        <ele>340</ele>
        <time>2016-08-22T14:49:18Z</time>
      </trkpt>
      <trkpt lat="49.04641" lon="7.77406">
        <ele>334</ele>
        <time>2016-08-22T14:49:38Z</time>
      </trkpt>
      <trkpt lat="49.04557" lon="7.77334">
        <ele>339</ele>
        <time>2016-08-22T14:49:58Z</time>
      </trkpt>
      <trkpt lat="49.04454" lon="7.77326">
        <ele>344</ele>
        <time>2016-08-22T14:50:18Z</time>
      </trkpt>
      <trkpt lat="49.04421" lon="7.77288">
        <ele>344</ele>
        <time>2016-08-22T14:50:38Z</time>
      </trkpt>
      <trkpt lat="49.04346" lon="7.77287">
        <ele>332</ele>
        <time>2016-08-22T14:50:58Z</time>
      </trkpt>
      <trkpt lat="49.04234" lon="7.77164">
        <ele>313</ele>
        <time>2016-08-22T14:51:18Z</time>
      </trkpt>
      <trkpt lat="49.04215" lon="7.76986">
        <ele>293</ele>
        <time>2016-08-22T14:51:38Z</time>
      </trkpt>
      <trkpt lat="49.04152" lon="7.76869">
        <ele>276</ele>
        <time>2016-08-22T14:51:58Z</time>
      </trkpt>
      <trkpt lat="49.04087" lon="7.76723">
        <ele>263</ele>
        <time>2016-08-22T14:52:18Z</time>
      </trkpt>
      <trkpt lat="49.04011" lon="7.76637">
        <ele>248</ele>
        <time>2016-08-22T14:52:38Z</time>
      </trkpt>
      <trkpt lat="49.03972" lon="7.76621">
        <ele>235</ele>
        <time>2016-08-22T14:52:58Z</time>
      </trkpt>
      <trkpt lat="49.03924" lon="7.76635">
        <ele>230</ele>
        <time>2016-08-22T14:53:18Z</time>
      </trkpt>
      <trkpt lat="49.03886" lon="7.76562">
        <ele>215</ele>
        <time>2016-08-22T14:53:38Z</time>
      </trkpt>
      <trkpt lat="49.03851" lon="7.76501">
        <ele>218</ele>
        <time>2016-08-22T14:53:58Z</time>
      </trkpt>
      <trkpt lat="49.03786" lon="7.76495">
        <ele>236</ele>
        <time>2016-08-22T14:54:18Z</time>
      </trkpt>
      <trkpt lat="49.03761" lon="7.76414">
        <ele>252</ele>
        <time>2016-08-22T14:54:38Z</time>
      </trkpt>
      <trkpt lat="49.03731" lon="7.76285">
        <ele>274</ele>
        <time>2016-08-22T14:54:58Z</time>
      </trkpt>
      <trkpt lat="49.0364" lon="7.76169">
        <ele>294</ele>
        <time>2016-08-22T14:55:18Z</time>
      </trkpt>
      <trkpt lat="49.03599" lon="7.76066">
        <ele>306</ele>
        <time>2016-08-22T14:55:38Z</time>
      </trkpt>
      <trkpt lat="49.03588" lon="7.75898">
        <ele>322</ele>
        <time>2016-08-22T14:55:58Z</time>
      </trkpt>
      <trkpt lat="49.03551" lon="7.75806">
        <ele>316</ele>
        <time>2016-08-22T14:56:18Z</time>
      </trkpt>
      <trkpt lat="49.03543" lon="7.75702">
        <ele>323</ele>
        <time>2016-08-22T14:56:38Z</time>
      </trkpt>
      <trkpt lat="49.03564" lon="7.75434">
        <ele>332</ele>
        <time>2016-08-22T14:56:58Z</time>
      </trkpt>
      <trkpt lat="49.03552" lon="7.75274">
        <ele>331</ele>
        <time>2016-08-22T14:57:18Z</time>
      </trkpt>
      <trkpt lat="49.0357" lon="7.7504">
        <ele>329</ele>
        <time>2016-08-22T14:57:38Z</time>
      </trkpt>
      <trkpt lat="49.03624" lon="7.74907">
        <ele>321</ele>
        <time>2016-08-22T14:57:58Z</time>
      </trkpt>
      <trkpt lat="49.03686" lon="7.74882">
        <ele>330</ele>
        <time>2016-08-22T14:58:18Z</time>
      </trkpt>
      <trkpt lat="49.03803" lon="7.74879">
        <ele>343</ele>
        <time>2016-08-22T14:58:38Z</time>
      </trkpt>
      <trkpt lat="49.03856" lon="7.74812">
        <ele>356</ele>
        <time>2016-08-22T14:58:58Z</time>
      </trkpt>
      <trkpt lat="49.0387" lon="7.74733">
        <ele>355</ele>
        <time>2016-08-22T14:59:18Z</time>
      </trkpt>
      <trkpt lat="49.03838" lon="7.7453">
        <ele>366</ele>
        <time>2016-08-22T14:59:38Z</time>
      </trkpt>
      <trkpt lat="49.03759" lon="7.74381">
        <ele>349</ele>
        <time>2016-08-22T14:59:58Z</time>
      </trkpt>
      <trkpt lat="49.03709" lon="7.74334">
        <ele>322</ele>
        <time>2016-08-22T15:00:18Z</time>
      </trkpt>
      <trkpt lat="49.038" lon="7.7423">
        <ele>349</ele>
        <time>2016-08-22T15:00:38Z</time>
      </trkpt>
      <trkpt lat="49.03849" lon="7.74116">
        <ele>372</ele>
        <time>2016-08-22T15:00:58Z</time>
      </trkpt>
      <trkpt lat="49.03869" lon="7.74015">
        <ele>374</ele>
        <time>2016-08-22T15:01:18Z</time>
      </trkpt>
      <trkpt lat="49.03854" lon="7.73794">
        <ele>405</ele>
        <time>2016-08-22T15:01:38Z</time>
      </trkpt>
      <trkpt lat="49.03814" lon="7.73715">
        <ele>397</ele>
        <time>2016-08-22T15:01:58Z</time>
      </trkpt>
      <trkpt lat="49.03639" lon="7.73588">
        <ele>404</ele>
        <time>2016-08-22T15:02:18Z</time>
      </trkpt>
      <trkpt lat="49.03526" lon="7.73564">
        <ele>408</ele>
        <time>2016-08-22T15:02:38Z</time>
      </trkpt>
      <trkpt lat="49.03404" lon="7.73583">
        <ele>389</ele>
        <time>2016-08-22T15:02:58Z</time>
      </trkpt>
      <trkpt lat="49.03351" lon="7.73533">
        <ele>396</ele>
        <time>2016-08-22T15:03:18Z</time>
      </trkpt>
      <trkpt lat="49.0333" lon="7.73439">
        <ele>388</ele>
        <time>2016-08-22T15:03:38Z</time>
      </trkpt>
      <trkpt lat="49.03344" lon="7.73322">
        <ele>381</ele>
        <time>2016-08-22T15:03:58Z</time>
      </trkpt>
      <trkpt lat="49.03383" lon="7.73286">
        <ele>379</ele>
        <time>2016-08-22T15:04:18Z</time>
      </trkpt>
      <trkpt lat="49.03473" lon="7.73311">
        <ele>386</ele>
        <time>2016-08-22T15:04:38Z</time>
      </trkpt>
      <trkpt lat="49.03599" lon="7.73377">
        <ele>416</ele>
        <time>2016-08-22T15:04:58Z</time>
      </trkpt>
      <trkpt lat="49.03637" lon="7.73376">
        <ele>419</ele>
        <time>2016-08-22T15:05:18Z</time>
      </trkpt>
      <trkpt lat="49.03681" lon="7.73311">
        <ele>412</ele>
        <time>2016-08-22T15:05:38Z</time>
      </trkpt>
      <trkpt lat="49.03776" lon="7.73262">
        <ele>411</ele>
        <time>2016-08-22T15:05:58Z</time>
      </trkpt>
      <trkpt lat="49.03876" lon="7.73258">
        <ele>412</ele>
        <time>2016-08-22T15:06:18Z</time>
      </trkpt>
      <trkpt lat="49.04111" lon="7.73161">
        <ele>369</ele>
        <time>2016-08-22T15:06:38Z</time>
      </trkpt>
      <trkpt lat="49.0426" lon="7.73053">
        <ele>376</ele>
        <time>2016-08-22T15:06:58Z</time>
      </trkpt>
      <trkpt lat="49.0418" lon="7.72953">
        <ele>381</ele>
        <time>2016-08-22T15:07:18Z</time>
      </trkpt>
      <trkpt lat="49.04126" lon="7.72838">
        <ele>372</ele>
        <time>2016-08-22T15:07:38Z</time>
      </trkpt>
      <trkpt lat="49.04118" lon="7.72764">
        <ele>382</ele>
        <time>2016-08-22T15:07:58Z</time>
      </trkpt>
      <trkpt lat="49.04129" lon="7.72668">
        <ele>396</ele>
        <time>2016-08-22T15:08:18Z</time>
      </trkpt>
      <trkpt lat="49.04113" lon="7.72526">
        <ele>403</ele>
        <time>2016-08-22T15:08:38Z</time>
      </trkpt>
      <trkpt lat="49.0409" lon="7.72468">
        <ele>405</ele>
        <time>2016-08-22T15:08:58Z</time>
      </trkpt>
      <trkpt lat="49.04091" lon="7.72396">
        <ele>411</ele>
        <time>2016-08-22T15:09:18Z</time>
      </trkpt>
      <trkpt lat="49.0406" lon="7.72293">
        <ele>403</ele>
        <time>2016-08-22T15:09:38Z</time>
      </trkpt>
      <trkpt lat="49.04075" lon="7.72244">
        <ele>404</ele>
        <time>2016-08-22T15:09:58Z</time>
      </trkpt>
      <trkpt lat="49.04159" lon="7.72232">
        <ele>408</ele>
        <time>2016-08-22T15:10:18Z</time>
      </trkpt>
      <trkpt lat="49.04222" lon="7.72226">
        <ele>416</ele>
        <time>2016-08-22T15:10:38Z</time>
      </trkpt>
      <trkpt lat="49.04271" lon="7.72189">
        <ele>421</ele>
        <time>2016-08-22T15:10:58Z</time>
      </trkpt>
      <trkpt lat="49.04309" lon="7.72185">
        <ele>424</ele>
        <time>2016-08-22T15:11:18Z</time>
      </trkpt>
      <trkpt lat="49.0438" lon="7.72089">
        <ele>425</ele>
        <time>2016-08-22T15:11:38Z</time>
      </trkpt>
      <trkpt lat="49.04441" lon="7.71936">
        <ele>427</ele>
        <time>2016-08-22T15:11:58Z</time>
      </trkpt>
      <trkpt lat="49.04444" lon="7.71742">
        <ele>428</ele>
        <time>2016-08-22T15:12:18Z</time>
      </trkpt>
      <trkpt lat="49.0441" lon="7.71646">
        <ele>439</ele>
        <time>2016-08-22T15:12:38Z</time>
      </trkpt>
      <trkpt lat="49.04373" lon="7.71489">
        <ele>429</ele>
        <time>2016-08-22T15:12:58Z</time>
      </trkpt>
      <trkpt lat="49.04367" lon="7.71293">
        <ele>432</ele>
        <time>2016-08-22T15:13:18Z</time>
      </trkpt>
      <trkpt lat="49.04384" lon="7.71117">
        <ele>420</ele>
        <time>2016-08-22T15:13:38Z</time>
      </trkpt>
      <trkpt lat="49.04383" lon="7.70952">
        <ele>402</ele>
        <time>2016-08-22T15:13:58Z</time>
      </trkpt>
      <trkpt lat="49.04406" lon="7.70796">
        <ele>394</ele>
        <time>2016-08-22T15:14:18Z</time>
      </trkpt>
      <trkpt lat="49.04529" lon="7.70712">
        <ele>393</ele>
        <time>2016-08-22T15:14:38Z</time>
      </trkpt>
      <trkpt lat="49.0458" lon="7.70591">
        <ele>400</ele>
        <time>2016-08-22T15:14:58Z</time>
      </trkpt>
      <trkpt lat="49.04606" lon="7.70599">
        <ele>395</ele>
        <time>2016-08-22T15:15:18Z</time>
      </trkpt>
      <trkpt lat="49.04616" lon="7.70468">
        <ele>384</ele>
        <time>2016-08-22T15:15:38Z</time>
      </trkpt>
      <trkpt lat="49.0464" lon="7.70371">
        <ele>366</ele>
        <time>2016-08-22T15:15:58Z</time>
      </trkpt>
      <trkpt lat="49.04622" lon="7.70343">
        <ele>367</ele>
        <time>2016-08-22T15:16:18Z</time>
      </trkpt>
      <trkpt lat="49.04613" lon="7.70237">
        <ele>344</ele>
        <time>2016-08-22T15:16:38Z</time>
      </trkpt>
      <trkpt lat="49.04586" lon="7.70135">
        <ele>328</ele>
        <time>2016-08-22T15:16:58Z</time>
      </trkpt>
      <trkpt lat="49.04534" lon="7.70062">
        <ele>319</ele>
        <time>2016-08-22T15:17:18Z</time>
      </trkpt>
      <trkpt lat="49.04423" lon="7.7003">
        <ele>315</ele>
        <time>2016-08-22T15:17:38Z</time>
      </trkpt>
      <trkpt lat="49.04353" lon="7.6999">
        <ele>301</ele>
        <time>2016-08-22T15:17:58Z</time>
      </trkpt>
      <trkpt lat="49.04305" lon="7.69923">
        <ele>297</ele>
        <time>2016-08-22T15:18:18Z</time>
      </trkpt>
      <trkpt lat="49.04145" lon="7.69842">
        <ele>284</ele>
        <time>2016-08-22T15:18:38Z</time>
      </trkpt>
      <trkpt lat="49.04031" lon="7.698">
        <ele>270</ele>
        <time>2016-08-22T15:18:58Z</time>
      </trkpt>
      <trkpt lat="49.03823" lon="7.69691">
        <ele>254</ele>
        <time>2016-08-22T15:19:18Z</time>
      </trkpt>
      <trkpt lat="49.03732" lon="7.69445">
        <ele>255</ele>
        <time>2016-08-22T15:19:38Z</time>
      </trkpt>
      <trkpt lat="49.03706" lon="7.69281">
        <ele>253</ele>
        <time>2016-08-22T15:19:58Z</time>
      </trkpt>
      <trkpt lat="49.03655" lon="7.69176">
        <ele>246</ele>
        <time>2016-08-22T15:20:18Z</time>
      </trkpt>
      <trkpt lat="49.03616" lon="7.69132">
        <ele>244</ele>
        <time>2016-08-22T15:20:38Z</time>
      </trkpt>
      <trkpt lat="49.03596" lon="7.69097">
        <ele>243</ele>
        <time>2016-08-22T15:20:58Z</time>
      </trkpt>
      <trkpt lat="49.03489" lon="7.69099">
        <ele>243</ele>
        <time>2016-08-22T15:21:18Z</time>
      </trkpt>
      <trkpt lat="49.03474" lon="7.69027">
        <ele>243</ele>
        <time>2016-08-22T15:21:38Z</time>
      </trkpt>
      <trkpt lat="49.03361" lon="7.68959">
        <ele>250</ele>
        <time>2016-08-22T15:21:58Z</time>
      </trkpt>
      <trkpt lat="49.03207" lon="7.68803">
        <ele>258</ele>
        <time>2016-08-22T15:22:18Z</time>
      </trkpt>
      <trkpt lat="49.03121" lon="7.68754">
        <ele>265</ele>
        <time>2016-08-22T15:22:38Z</time>
      </trkpt>
      <trkpt lat="49.03018" lon="7.68747">
        <ele>275</ele>
        <time>2016-08-22T15:22:58Z</time>
      </trkpt>
      <trkpt lat="49.02948" lon="7.68704">
        <ele>282</ele>
        <time>2016-08-22T15:23:18Z</time>
      </trkpt>
      <trkpt lat="49.02923" lon="7.68643">
        <ele>286</ele>
        <time>2016-08-22T15:23:38Z</time>
      </trkpt>
      <trkpt lat="49.02755" lon="7.68419">
        <ele>302</ele>
        <time>2016-08-22T15:23:58Z</time>
      </trkpt>
      <trkpt lat="49.02683" lon="7.68305">
        <ele>300</ele>
        <time>2016-08-22T15:24:18Z</time>
      </trkpt>
      <trkpt lat="49.02534" lon="7.68178">
        <ele>327</ele>
        <time>2016-08-22T15:24:38Z</time>
      </trkpt>
      <trkpt lat="49.02408" lon="7.67942">
        <ele>370</ele>
        <time>2016-08-22T15:24:58Z</time>
      </trkpt>
      <trkpt lat="49.0231" lon="7.67687">
        <ele>377</ele>
        <time>2016-08-22T15:25:18Z</time>
      </trkpt>
      <trkpt lat="49.02156" lon="7.67927">
        <ele>383</ele>
        <time>2016-08-22T15:25:38Z</time>
      </trkpt>
      <trkpt lat="49.0216" lon="7.67988">
        <ele>384</ele>
        <time>2016-08-22T15:25:58Z</time>
      </trkpt>
      <trkpt lat="49.02183" lon="7.68131">
        <ele>394</ele>
        <time>2016-08-22T15:26:18Z</time>
      </trkpt>
      <trkpt lat="49.02163" lon="7.6823">
        <ele>374</ele>
        <time>2016-08-22T15:26:38Z</time>
      </trkpt>
      <trkpt lat="49.0208" lon="7.68223">
        <ele>367</ele>
        <time>2016-08-22T15:26:58Z</time>
      </trkpt>
      <trkpt lat="49.02047" lon="7.68268">
        <ele>365</ele>
        <time>2016-08-22T15:27:18Z</time>
      </trkpt>
      <trkpt lat="49.01999" lon="7.68204">
        <ele>369</ele>
        <time>2016-08-22T15:27:38Z</time>
      </trkpt>
      <trkpt lat="49.01916" lon="7.68153">
        <ele>378</ele>
        <time>2016-08-22T15:27:58Z</time>
      </trkpt>
      <trkpt lat="49.01861" lon="7.6818">
        <ele>380</ele>
        <time>2016-08-22T15:28:18Z</time>
      </trkpt>
      <trkpt lat="49.01764" lon="7.68185">
        <ele>397</ele>
        <time>2016-08-22T15:28:38Z</time>
      </trkpt>
      <trkpt lat="49.01632" lon="7.68269">
        <ele>410</ele>
        <time>2016-08-22T15:28:58Z</time>
      </trkpt>
      <trkpt lat="49.01563" lon="7.68333">
        <ele>413</ele>
        <time>2016-08-22T15:29:18Z</time>
      </trkpt>
      <trkpt lat="49.01469" lon="7.68305">
        <ele>425</ele>
        <time>2016-08-22T15:29:38Z</time>
      </trkpt>
      <trkpt lat="49.01398" lon="7.68274">
        <ele>436</ele>
        <time>2016-08-22T15:29:58Z</time>
      </trkpt>
      <trkpt lat="49.01287" lon="7.68386">
        <ele>480</ele>
        <time>2016-08-22T15:30:18Z</time>
      </trkpt>
      <trkpt lat="49.01277" lon="7.68448">
        <ele>490</ele>
        <time>2016-08-22T15:30:38Z</time>
      </trkpt>
      <trkpt lat="49.01231" lon="7.68489">
        <ele>509</ele>
        <time>2016-08-22T15:30:58Z</time>
      </trkpt>
      <trkpt lat="49.01198" lon="7.68556">
        <ele>511</ele>
        <time>2016-08-22T15:31:18Z</time>
      </trkpt>
      <trkpt lat="49.01155" lon="7.68545">
        <ele>512</ele>
        <time>2016-08-22T15:31:38Z</time>
      </trkpt>
      <trkpt lat="49.011" lon="7.68459">
        <ele>515</ele>
        <time>2016-08-22T15:31:58Z</time>
      </trkpt>
      <trkpt lat="49.00975" lon="7.68444">
        <ele>517</ele>
        <time>2016-08-22T15:32:18Z</time>
      </trkpt>
      <trkpt lat="49.00785" lon="7.68582">
        <ele>502</ele>
        <time>2016-08-22T15:32:38Z</time>
      </trkpt>
      <trkpt lat="49.00636" lon="7.68522">
        <ele>449</ele>
        <time>2016-08-22T15:32:58Z</time>
      </trkpt>
      <trkpt lat="49.00678" lon="7.6862">
        <ele>462</ele>
        <time>2016-08-22T15:33:18Z</time>
      </trkpt>
      <trkpt lat="49.00478" lon="7.68451">
        <ele>406</ele>
        <time>2016-08-22T15:33:38Z</time>
      </trkpt>
      <trkpt lat="49.00444" lon="7.68477">
        <ele>402</ele>
        <time>2016-08-22T15:33:58Z</time>
      </trkpt>
      <trkpt lat="49.00365" lon="7.68465">
        <ele>391</ele>
        <time>2016-08-22T15:34:18Z</time>
      </trkpt>
      <trkpt lat="49.00177" lon="7.68457">
        <ele>374</ele>
        <time>2016-08-22T15:34:38Z</time>
      </trkpt>
      <trkpt lat="49.00044" lon="7.68367">
        <ele>344</ele>
        <time>2016-08-22T15:34:58Z</time>
      </trkpt>
      <trkpt lat="49.00006" lon="7.68264">
        <ele>346</ele>
        <time>2016-08-22T15:35:18Z</time>
      </trkpt>
      <trkpt lat="48.99931" lon="7.68326">
        <ele>335</ele>
        <time>2016-08-22T15:35:38Z</time>
      </trkpt>
      <trkpt lat="48.99833" lon="7.68302">
        <ele>323</ele>
        <time>2016-08-22T15:35:58Z</time>
      </trkpt>
      <trkpt lat="48.99773" lon="7.68249">
        <ele>328</ele>
        <time>2016-08-22T15:36:18Z</time>
      </trkpt>
      <trkpt lat="48.99739" lon="7.68174">
        <ele>320</ele>
        <time>2016-08-22T15:36:38Z</time>
      </trkpt>
      <trkpt lat="48.99746" lon="7.68103">
        <ele>323</ele>
        <time>2016-08-22T15:36:58Z</time>
      </trkpt>
      <trkpt lat="48.99702" lon="7.68067">
        <ele>325</ele>
        <time>2016-08-22T15:37:18Z</time>
      </trkpt>
      <trkpt lat="48.99754" lon="7.67955">
        <ele>316</ele>
        <time>2016-08-22T15:37:38Z</time>
      </trkpt>
      <trkpt lat="48.99722" lon="7.67859">
        <ele>315</ele>
        <time>2016-08-22T15:37:58Z</time>
      </trkpt>
      <trkpt lat="48.9964" lon="7.67776">
        <ele>326</ele>
        <time>2016-08-22T15:38:18Z</time>
      </trkpt>
      <trkpt lat="48.99529" lon="7.67689">
        <ele>323</ele>
        <time>2016-08-22T15:38:38Z</time>
      </trkpt>
      <trkpt lat="48.99356" lon="7.67623">
        <ele>308</ele>
        <time>2016-08-22T15:38:58Z</time>
      </trkpt>
      <trkpt lat="48.99475" lon="7.67551">
        <ele>291</ele>
        <time>2016-08-22T15:39:18Z</time>
      </trkpt>
      <trkpt lat="48.99509" lon="7.67487">
        <ele>270</ele>
        <time>2016-08-22T15:39:38Z</time>
      </trkpt>
      <trkpt lat="48.99568" lon="7.67451">
        <ele>260</ele>
        <time>2016-08-22T15:39:58Z</time>
      </trkpt>
      <trkpt lat="48.99584" lon="7.67384">
        <ele>255</ele>
        <time>2016-08-22T15:40:18Z</time>
      </trkpt>
      <trkpt lat="48.99552" lon="7.67316">
        <ele>260</ele>
        <time>2016-08-22T15:40:38Z</time>
      </trkpt>
      <trkpt lat="48.99508" lon="7.67309">
        <ele>257</ele>
        <time>2016-08-22T15:40:58Z</time>
      </trkpt>
      <trkpt lat="48.99436" lon="7.67242">
        <ele>269</ele>
        <time>2016-08-22T15:41:18Z</time>
      </trkpt>
      <trkpt lat="48.99391" lon="7.67234">
        <ele>262</ele>
        <time>2016-08-22T15:41:38Z</time>
      </trkpt>
      <trkpt lat="48.99319" lon="7.67185">
        <ele>253</ele>
        <time>2016-08-22T15:41:58Z</time>
      </trkpt>
      <trkpt lat="48.99299" lon="7.66969">
        <ele>272</ele>
        <time>2016-08-22T15:42:18Z</time>
      </trkpt>
      <trkpt lat="48.99312" lon="7.66901">
        <ele>279</ele>
        <time>2016-08-22T15:42:38Z</time>
      </trkpt>
      <trkpt lat="48.99261" lon="7.6678">
        <ele>267</ele>
        <time>2016-08-22T15:42:58Z</time>
      </trkpt>
      <trkpt lat="48.99226" lon="7.6658">
        <ele>242</ele>
        <time>2016-08-22T15:43:18Z</time>
      </trkpt>
      <trkpt lat="48.99233" lon="7.66451">
        <ele>238</ele>
        <time>2016-08-22T15:43:38Z</time>
      </trkpt>
      <trkpt lat="48.99283" lon="7.66332">
        <ele>246</ele>
        <time>2016-08-22T15:43:58Z</time>
      </trkpt>
      <trkpt lat="48.99332" lon="7.66212">
        <ele>236</ele>
        <time>2016-08-22T15:44:18Z</time>
      </trkpt>
      <trkpt lat="48.99445" lon="7.66093">
        <ele>244</ele>
        <time>2016-08-22T15:44:38Z</time>
      </trkpt>
      <trkpt lat="48.99432" lon="7.6603">
        <ele>227</ele>
        <time>2016-08-22T15:44:58Z</time>
      </trkpt>
      <trkpt lat="48.99487" lon="7.6601">
        <ele>225</ele>
        <time>2016-08-22T15:45:18Z</time>
      </trkpt>
      <trkpt lat="48.99496" lon="7.65956">
        <ele>219</ele>
        <time>2016-08-22T15:45:38Z</time>
      </trkpt>
      <trkpt lat="48.99518" lon="7.65904">
        <ele>220</ele>
        <time>2016-08-22T15:45:58Z</time>
      </trkpt>
      <trkpt lat="48.99508" lon="7.65842">
        <ele>221</ele>
        <time>2016-08-22T15:46:18Z</time>
      </trkpt>
      <trkpt lat="48.99445" lon="7.65762">
        <ele>228</ele>
        <time>2016-08-22T15:46:38Z</time>
      </trkpt>
      <trkpt lat="48.99419" lon="7.65595">
        <ele>231</ele>
        <time>2016-08-22T15:46:58Z</time>
      </trkpt>
      <trkpt lat="48.99355" lon="7.65507">
        <ele>236</ele>
        <time>2016-08-22T15:47:18Z</time>
      </trkpt>
      <trkpt lat="48.99334" lon="7.65438">
        <ele>237</ele>
        <time>2016-08-22T15:47:38Z</time>
      </trkpt>
      <trkpt lat="48.99332" lon="7.65372">
        <ele>238</ele>
        <time>2016-08-22T15:47:58Z</time>
      </trkpt>
      <trkpt lat="48.993" lon="7.65204">
        <ele>243</ele>
        <time>2016-08-22T15:48:18Z</time>
      </trkpt>
      <trkpt lat="48.99339" lon="7.64996">
        <ele>251</ele>
        <time>2016-08-22T15:48:38Z</time>
      </trkpt>
      <trkpt lat="48.99395" lon="7.64764">
        <ele>263</ele>
        <time>2016-08-22T15:48:58Z</time>
      </trkpt>
      <trkpt lat="48.99376" lon="7.64694">
        <ele>278</ele>
        <time>2016-08-22T15:49:18Z</time>
      </trkpt>
      <trkpt lat="48.99271" lon="7.64526">
        <ele>325</ele>
        <time>2016-08-22T15:49:38Z</time>
      </trkpt>
      <trkpt lat="48.98942" lon="7.64153">
        <ele>380</ele>
        <time>2016-08-22T15:49:58Z</time>
      </trkpt>
      <trkpt lat="48.98721" lon="7.63962">
        <ele>442</ele>
        <time>2016-08-22T15:50:18Z</time>
      </trkpt>
      <trkpt lat="48.98624" lon="7.63812">
        <ele>437</ele>
        <time>2016-08-22T15:50:38Z</time>
      </trkpt>
      <trkpt lat="48.98562" lon="7.63623">
        <ele>462</ele>
        <time>2016-08-22T15:50:58Z</time>
      </trkpt>
      <trkpt lat="48.98551" lon="7.63434">
        <ele>475</ele>
        <time>2016-08-22T15:51:18Z</time>
      </trkpt>
      <trkpt lat="48.986" lon="7.63209">
        <ele>468</ele>
        <time>2016-08-22T15:51:38Z</time>
      </trkpt>
      <trkpt lat="48.98594" lon="7.63082">
        <ele>471</ele>
        <time>2016-08-22T15:51:58Z</time>
      </trkpt>
      <trkpt lat="48.98607" lon="7.62936">
        <ele>479</ele>
        <time>2016-08-22T15:52:18Z</time>
      </trkpt>
      <trkpt lat="48.98585" lon="7.62843">
        <ele>482</ele>
        <time>2016-08-22T15:52:38Z</time>
      </trkpt>
      <trkpt lat="48.98527" lon="7.62672">
        <ele>485</ele>
        <time>2016-08-22T15:52:58Z</time>
      </trkpt>
      <trkpt lat="48.9857" lon="7.62155">
        <ele>486</ele>
        <time>2016-08-22T15:53:18Z</time>
      </trkpt>
      <trkpt lat="48.98536" lon="7.62017">
        <ele>489</ele>
        <time>2016-08-22T15:53:38Z</time>
      </trkpt>
      <trkpt lat="48.98524" lon="7.61844">
        <ele>503</ele>
        <time>2016-08-22T15:53:58Z</time>
      </trkpt>
      <trkpt lat="48.98494" lon="7.61762">
        <ele>508</ele>
        <time>2016-08-22T15:54:18Z</time>
      </trkpt>
      <trkpt lat="48.98403" lon="7.61677">
        <ele>514</ele>
        <time>2016-08-22T15:54:38Z</time>
      </trkpt>
      <trkpt lat="48.98227" lon="7.61539">
        <ele>521</ele>
        <time>2016-08-22T15:54:58Z</time>
      </trkpt>
      <trkpt lat="48.98177" lon="7.61413">
        <ele>529</ele>
        <time>2016-08-22T15:55:18Z</time>
      </trkpt>
      <trkpt lat="48.98176" lon="7.61452">
        <ele>527</ele>
        <time>2016-08-22T15:55:38Z</time>
      </trkpt>
      <trkpt lat="48.98119" lon="7.61457">
        <ele>539</ele>
        <time>2016-08-22T15:55:58Z</time>
      </trkpt>
      <trkpt lat="48.98009" lon="7.61462">
        <ele>565</ele>
        <time>2016-08-22T15:56:18Z</time>
      </trkpt>
      <trkpt lat="48.97954" lon="7.61435">
        <ele>575</ele>
        <time>2016-08-22T15:56:38Z</time>
      </trkpt>
      <trkpt lat="48.97871" lon="7.61427">
        <ele>577</ele>
        <time>2016-08-22T15:56:58Z</time>
      </trkpt>
      <trkpt lat="48.97844" lon="7.61443">
        <ele>577</ele>
        <time>2016-08-22T15:57:18Z</time>
      </trkpt>
      <trkpt lat="48.97768" lon="7.61498">
        <ele>570</ele>
        <time>2016-08-22T15:57:38Z</time>
      </trkpt>
      <trkpt lat="48.97736" lon="7.61549">
        <ele>547</ele>
        <time>2016-08-22T15:57:58Z</time>
      </trkpt>
      <trkpt lat="48.977" lon="7.61563">
        <ele>540</ele>
        <time>2016-08-22T15:58:18Z</time>
      </trkpt>
      <trkpt lat="48.97698" lon="7.61583">
        <ele>538</ele>
        <time>2016-08-22T15:58:38Z</time>
      </trkpt>
      <trkpt lat="48.97678" lon="7.61589">
        <ele>524</ele>
        <time>2016-08-22T15:58:58Z</time>
      </trkpt>
      <trkpt lat="48.97668" lon="7.61617">
        <ele>522</ele>
        <time>2016-08-22T15:59:18Z</time>
      </trkpt>
      <trkpt lat="48.97699" lon="7.61645">
        <ele>522</ele>
        <time>2016-08-22T15:59:38Z</time>
      </trkpt>
      <trkpt lat="48.97721" lon="7.6168">
        <ele>514</ele>
        <time>2016-08-22T15:59:58Z</time>
      </trkpt>
      <trkpt lat="48.97625" lon="7.61777">
        <ele>482</ele>
        <time>2016-08-22T16:00:18Z</time>
      </trkpt>
      <trkpt lat="48.97585" lon="7.61831">
        <ele>472</ele>
        <time>2016-08-22T16:00:38Z</time>
      </trkpt>
      <trkpt lat="48.97535" lon="7.61847">
        <ele>470</ele>
        <time>2016-08-22T16:00:58Z</time>
      </trkpt>
      <trkpt lat="48.97527" lon="7.61869">
        <ele>468</ele>
        <time>2016-08-22T16:01:18Z</time>
      </trkpt>
      <trkpt lat="48.97533" lon="7.61882">
        <ele>467</ele>
        <time>2016-08-22T16:01:38Z</time>
      </trkpt>
      <trkpt lat="48.97511" lon="7.61925">
        <ele>456</ele>
        <time>2016-08-22T16:01:58Z</time>
      </trkpt>
      <trkpt lat="48.97482" lon="7.62048">
        <ele>429</ele>
        <time>2016-08-22T16:02:18Z</time>
      </trkpt>
      <trkpt lat="48.9739" lon="7.62092">
        <ele>402</ele>
        <time>2016-08-22T16:02:38Z</time>
      </trkpt>
      <trkpt lat="48.97277" lon="7.62258">
        <ele>358</ele>
        <time>2016-08-22T16:02:58Z</time>
      </trkpt>
      <trkpt lat="48.9718" lon="7.62332">
        <ele>327</ele>
        <time>2016-08-22T16:03:18Z</time>
      </trkpt>
      <trkpt lat="48.96988" lon="7.62361">
        <ele>303</ele>
        <time>2016-08-22T16:03:38Z</time>
      </trkpt>
      <trkpt lat="48.96914" lon="7.6244">
        <ele>290</ele>
        <time>2016-08-22T16:03:58Z</time>
      </trkpt>
      <trkpt lat="48.96827" lon="7.62404">
        <ele>281</ele>
        <time>2016-08-22T16:04:18Z</time>
      </trkpt>
      <trkpt lat="48.96742" lon="7.62393">
        <ele>272</ele>
        <time>2016-08-22T16:04:38Z</time>
      </trkpt>
      <trkpt lat="48.96552" lon="7.62326">
        <ele>241</ele>
        <time>2016-08-22T16:04:58Z</time>
      </trkpt>
      <trkpt lat="48.96487" lon="7.62317">
        <ele>238</ele>
        <time>2016-08-22T16:05:18Z</time>
      </trkpt>
      <trkpt lat="48.96389" lon="7.62428">
        <ele>254</ele>
        <time>2016-08-22T16:05:38Z</time>
      </trkpt>
      <trkpt lat="48.96343" lon="7.62438">
        <ele>245</ele>
        <time>2016-08-22T16:05:58Z</time>
      </trkpt>
      <trkpt lat="48.96255" lon="7.62571">
        <ele>235</ele>
        <time>2016-08-22T16:06:18Z</time>
      </trkpt>
      <trkpt lat="48.96132" lon="7.62641">
        <ele>207</ele>
        <time>2016-08-22T16:06:38Z</time>
      </trkpt>
      <trkpt lat="48.96105" lon="7.62672">
        <ele>206</ele>
        <time>2016-08-22T16:06:58Z</time>
      </trkpt>
      <trkpt lat="48.96125" lon="7.6277">
        <ele>214</ele>
        <time>2016-08-22T16:07:18Z</time>
      </trkpt>
      <trkpt lat="48.96122" lon="7.62815">
        <ele>217</ele>
        <time>2016-08-22T16:07:38Z</time>
      </trkpt>
      <trkpt lat="48.96089" lon="7.62731">
        <ele>209</ele>
        <time>2016-08-22T16:07:58Z</time>
      </trkpt>
      <trkpt lat="48.9602" lon="7.62802">
        <ele>218</ele>
        <time>2016-08-22T16:08:18Z</time>
      </trkpt>
      <trkpt lat="48.95962" lon="7.62909">
        <ele>231</ele>
        <time>2016-08-22T16:08:38Z</time>
      </trkpt>
      <trkpt lat="48.95898" lon="7.63047">
        <ele>235</ele>
        <time>2016-08-22T16:08:58Z</time>
      </trkpt>
      <trkpt lat="48.95866" lon="7.63152">
        <ele>238</ele>
        <time>2016-08-22T16:09:18Z</time>
      </trkpt>
      <trkpt lat="48.95833" lon="7.6324">
        <ele>231</ele>
        <time>2016-08-22T16:09:38Z</time>
      </trkpt>
      <trkpt lat="48.95809" lon="7.63281">
        <ele>233</ele>
        <time>2016-08-22T16:09:58Z</time>
      </trkpt>
      <trkpt lat="48.9575" lon="7.63317">
        <ele>225</ele>
        <time>2016-08-22T16:10:18Z</time>
      </trkpt>
      <trkpt lat="48.9556" lon="7.635">
        <ele>217</ele>
        <time>2016-08-22T16:10:38Z</time>
      </trkpt>
      <trkpt lat="48.95495" lon="7.63483">
        <ele>206</ele>
        <time>2016-08-22T16:10:58Z</time>
      </trkpt>
      <trkpt lat="48.95414" lon="7.63518">
        <ele>202</ele>
        <time>2016-08-22T16:11:18Z</time>
      </trkpt>
      <trkpt lat="48.95316" lon="7.63599">
        <ele>198</ele>
        <time>2016-08-22T16:11:38Z</time>
      </trkpt>
      <trkpt lat="48.9535" lon="7.6352">
        <ele>200</ele>
        <time>2016-08-22T16:11:58Z</time>
      </trkpt>
      <trkpt lat="48.95271" lon="7.63416">
        <ele>198</ele>
        <time>2016-08-22T16:12:18Z</time>
      </trkpt>
      <trkpt lat="48.95229" lon="7.63439">
        <ele>200</ele>
        <time>2016-08-22T16:12:38Z</time>
      </trkpt>
      <trkpt lat="48.9521" lon="7.63519">
        <ele>198</ele>
        <time>2016-08-22T16:12:58Z</time>
      </trkpt>
      <trkpt lat="48.95153" lon="7.6349">
        <ele>202</ele>
        <time>2016-08-22T16:13:18Z</time>
      </trkpt>
      <trkpt lat="48.95233" lon="7.63303">
        <ele>209</ele>
        <time>2016-08-22T16:13:38Z</time>
      </trkpt>
      <trkpt lat="48.95373" lon="7.63058">
        <ele>200</ele>
        <time>2016-08-22T16:13:58Z</time>
      </trkpt>
      <trkpt lat="48.95519" lon="7.6291">
        <ele>206</ele>
        <time>2016-08-22T16:14:18Z</time>
      </trkpt>
      <trkpt lat="48.95637" lon="7.62777">
        <ele>205</ele>
        <time>2016-08-22T16:14:38Z</time>
      </trkpt>
      <trkpt lat="48.95764" lon="7.62683">
        <ele>205</ele>
        <time>2016-08-22T16:14:58Z</time>
      </trkpt>
      <trkpt lat="48.95632" lon="7.62688">
        <ele>224</ele>
        <time>2016-08-22T16:15:18Z</time>
      </trkpt>
      <trkpt lat="48.95657" lon="7.62641">
        <ele>240</ele>
        <time>2016-08-22T16:15:38Z</time>
      </trkpt>
      <trkpt lat="48.95615" lon="7.62619">
        <ele>247</ele>
        <time>2016-08-22T16:15:58Z</time>
      </trkpt>
      <trkpt lat="48.95591" lon="7.62576">
        <ele>266</ele>
        <time>2016-08-22T16:16:18Z</time>
      </trkpt>
      <trkpt lat="48.95614" lon="7.62553">
        <ele>269</ele>
        <time>2016-08-22T16:16:38Z</time>
      </trkpt>
      <trkpt lat="48.95557" lon="7.62538">
        <ele>273</ele>
        <time>2016-08-22T16:16:58Z</time>
      </trkpt>
      <trkpt lat="48.95536" lon="7.62475">
        <ele>284</ele>
        <time>2016-08-22T16:17:18Z</time>
      </trkpt>
      <trkpt lat="48.95642" lon="7.62453">
        <ele>297</ele>
        <time>2016-08-22T16:17:38Z</time>
      </trkpt>
      <trkpt lat="48.95726" lon="7.62368">
        <ele>314</ele>
        <time>2016-08-22T16:17:58Z</time>
      </trkpt>
      <trkpt lat="48.95772" lon="7.6229">
        <ele>314</ele>
        <time>2016-08-22T16:18:18Z</time>
      </trkpt>
      <trkpt lat="48.95783" lon="7.6215">
        <ele>331</ele>
        <time>2016-08-22T16:18:38Z</time>
      </trkpt>
      <trkpt lat="48.95767" lon="7.61982">
        <ele>342</ele>
        <time>2016-08-22T16:18:58Z</time>
      </trkpt>
      <trkpt lat="48.95719" lon="7.61786">
        <ele>372</ele>
        <time>2016-08-22T16:19:18Z</time>
      </trkpt>
      <trkpt lat="48.95698" lon="7.61653">
        <ele>380</ele>
        <time>2016-08-22T16:19:38Z</time>
      </trkpt>
      <trkpt lat="48.95716" lon="7.61503">
        <ele>395</ele>
        <time>2016-08-22T16:19:58Z</time>
      </trkpt>
      <trkpt lat="48.95749" lon="7.61492">
        <ele>400</ele>
        <time>2016-08-22T16:20:18Z</time>
      </trkpt>
      <trkpt lat="48.95988" lon="7.61638">
        <ele>420</ele>
        <time>2016-08-22T16:20:38Z</time>
      </trkpt>
      <trkpt lat="48.95854" lon="7.61459">
        <ele>438</ele>
        <time>2016-08-22T16:20:58Z</time>
      </trkpt>
      <trkpt lat="48.95774" lon="7.61369">
        <ele>444</ele>
        <time>2016-08-22T16:21:18Z</time>
      </trkpt>
      <trkpt lat="48.95653" lon="7.61331">
        <ele>452</ele>
        <time>2016-08-22T16:21:38Z</time>
      </trkpt>
      <trkpt lat="48.9554" lon="7.61397">
        <ele>444</ele>
        <time>2016-08-22T16:21:58Z</time>
      </trkpt>
      <trkpt lat="48.95535" lon="7.61363">
        <ele>446</ele>
        <time>2016-08-22T16:22:18Z</time>
      </trkpt>
      <trkpt lat="48.95552" lon="7.61276">
        <ele>457</ele>
        <time>2016-08-22T16:22:38Z</time>
      </trkpt>
      <trkpt lat="48.95556" lon="7.61148">
        <ele>475</ele>
        <time>2016-08-22T16:22:58Z</time>
      </trkpt>
      <trkpt lat="48.95409" lon="7.60936">
        <ele>471</ele>
        <time>2016-08-22T16:23:18Z</time>
      </trkpt>
      <trkpt lat="48.95231" lon="7.6082">
        <ele>462</ele>
        <time>2016-08-22T16:23:38Z</time>
      </trkpt>
      <trkpt lat="48.95113" lon="7.6071">
        <ele>456</ele>
        <time>2016-08-22T16:23:58Z</time>
      </trkpt>
      <trkpt lat="48.95014" lon="7.60584">
        <ele>457</ele>
        <time>2016-08-22T16:24:18Z</time>
      </trkpt>
      <trkpt lat="48.94922" lon="7.60539">
        <ele>455</ele>
        <time>2016-08-22T16:24:38Z</time>
      </trkpt>
      <trkpt lat="48.94836" lon="7.60565">
        <ele>453</ele>
        <time>2016-08-22T16:24:58Z</time>
      </trkpt>
      <trkpt lat="48.94739" lon="7.60466">
        <ele>476</ele>
        <time>2016-08-22T16:25:18Z</time>
      </trkpt>
      <trkpt lat="48.94644" lon="7.60254">
        <ele>500</ele>
        <time>2016-08-22T16:25:38Z</time>
      </trkpt>
      <trkpt lat="48.94622" lon="7.60118">
        <ele>516</ele>
        <time>2016-08-22T16:25:58Z</time>
      </trkpt>
      <trkpt lat="48.94649" lon="7.6006">
        <ele>523</ele>
        <time>2016-08-22T16:26:18Z</time>
      </trkpt>
      <trkpt lat="48.94676" lon="7.60054">
        <ele>528</ele>
        <time>2016-08-22T16:26:38Z</time>
      </trkpt>
      <trkpt lat="48.94705" lon="7.5997">
        <ele>529</ele>
        <time>2016-08-22T16:26:58Z</time>
      </trkpt>
      <trkpt lat="48.94702" lon="7.59898">
        <ele>526</ele>
        <time>2016-08-22T16:27:18Z</time>
      </trkpt>
      <trkpt lat="48.94745" lon="7.59824">
        <ele>521</ele>
        <time>2016-08-22T16:27:38Z</time>
      </trkpt>
      <trkpt lat="48.9482" lon="7.59674">
        <ele>516</ele>
        <time>2016-08-22T16:27:58Z</time>
      </trkpt>
      <trkpt lat="48.94831" lon="7.59576">
        <ele>498</ele>
        <time>2016-08-22T16:28:18Z</time>
      </trkpt>
      <trkpt lat="48.94814" lon="7.59446">
        <ele>480</ele>
        <time>2016-08-22T16:28:38Z</time>
      </trkpt>
      <trkpt lat="48.9482" lon="7.59389">
        <ele>479</ele>
        <time>2016-08-22T16:28:58Z</time>
      </trkpt>
      <trkpt lat="48.94835" lon="7.59366">
        <ele>486</ele>
        <time>2016-08-22T16:29:18Z</time>
      </trkpt>
      <trkpt lat="48.94877" lon="7.59238">
        <ele>485</ele>
        <time>2016-08-22T16:29:38Z</time>
      </trkpt>
      <trkpt lat="48.9494" lon="7.59154">
        <ele>478</ele>
        <time>2016-08-22T16:29:58Z</time>
      </trkpt>
      <trkpt lat="48.94949" lon="7.591">
        <ele>477</ele>
        <time>2016-08-22T16:30:18Z</time>
      </trkpt>
      <trkpt lat="48.94951" lon="7.58975">
        <ele>468</ele>
        <time>2016-08-22T16:30:38Z</time>
      </trkpt>
      <trkpt lat="48.95223" lon="7.58808">
        <ele>452</ele>
        <time>2016-08-22T16:30:58Z</time>
      </trkpt>
      <trkpt lat="48.95378" lon="7.58656">
        <ele>447</ele>
        <time>2016-08-22T16:31:18Z</time>
      </trkpt>
      <trkpt lat="48.95415" lon="7.58552">
        <ele>445</ele>
        <time>2016-08-22T16:31:38Z</time>
      </trkpt>
      <trkpt lat="48.95485" lon="7.58558">
        <ele>445</ele>
        <time>2016-08-22T16:31:58Z</time>
      </trkpt>
      <trkpt lat="48.95571" lon="7.58448">
        <ele>445</ele>
        <time>2016-08-22T16:32:18Z</time>
      </trkpt>
      <trkpt lat="48.9559" lon="7.58366">
        <ele>434</ele>
        <time>2016-08-22T16:32:38Z</time>
      </trkpt>
      <trkpt lat="48.95577" lon="7.58281">
        <ele>438</ele>
        <time>2016-08-22T16:32:58Z</time>
      </trkpt>
      <trkpt lat="48.9549" lon="7.58183">
        <ele>445</ele>
        <time>2016-08-22T16:33:18Z</time>
      </trkpt>
      <trkpt lat="48.95435" lon="7.58014">
        <ele>434</ele>
        <time>2016-08-22T16:33:38Z</time>
      </trkpt>
      <trkpt lat="48.95419" lon="7.57914">
        <ele>424</ele>
        <time>2016-08-22T16:33:58Z</time>
      </trkpt>
      <trkpt lat="48.95346" lon="7.57731">
        <ele>423</ele>
        <time>2016-08-22T16:34:18Z</time>
      </trkpt>
      <trkpt lat="48.95376" lon="7.5766">
        <ele>428</ele>
        <time>2016-08-22T16:34:38Z</time>
      </trkpt>
      <trkpt lat="48.95429" lon="7.57599">
        <ele>425</ele>
        <time>2016-08-22T16:34:58Z</time>
      </trkpt>
      <trkpt lat="48.95454" lon="7.57398">
        <ele>458</ele>
        <time>2016-08-22T16:35:18Z</time>
      </trkpt>
      <trkpt lat="48.95446" lon="7.57062">
        <ele>465</ele>
        <time>2016-08-22T16:35:38Z</time>
      </trkpt>
      <trkpt lat="48.95464" lon="7.56962">
        <ele>459</ele>
        <time>2016-08-22T16:35:58Z</time>
      </trkpt>
      <trkpt lat="48.95519" lon="7.56847">
        <ele>460</ele>
        <time>2016-08-22T16:36:18Z</time>
      </trkpt>
      <trkpt lat="48.95507" lon="7.56741">
        <ele>455</ele>
        <time>2016-08-22T16:36:38Z</time>
      </trkpt>
      <trkpt lat="48.95376" lon="7.56449">
        <ele>409</ele>
        <time>2016-08-22T16:36:58Z</time>
      </trkpt>
      <trkpt lat="48.95237" lon="7.5631">
        <ele>375</ele>
        <time>2016-08-22T16:37:18Z</time>
      </trkpt>
      <trkpt lat="48.95157" lon="7.56154">
        <ele>359</ele>
        <time>2016-08-22T16:37:38Z</time>
      </trkpt>
      <trkpt lat="48.95085" lon="7.56038">
        <ele>338</ele>
        <time>2016-08-22T16:37:58Z</time>
      </trkpt>
      <trkpt lat="48.9505" lon="7.55924">
        <ele>324</ele>
        <time>2016-08-22T16:38:18Z</time>
      </trkpt>
      <trkpt lat="48.94954" lon="7.55724">
        <ele>301</ele>
        <time>2016-08-22T16:38:38Z</time>
      </trkpt>
      <trkpt lat="48.94885" lon="7.55379">
        <ele>285</ele>
        <time>2016-08-22T16:38:58Z</time>
      </trkpt>
      <trkpt lat="48.94923" lon="7.55183">
        <ele>266</ele>
        <time>2016-08-22T16:39:18Z</time>
      </trkpt>
      <trkpt lat="48.94922" lon="7.55089">
        <ele>254</ele>
        <time>2016-08-22T16:39:38Z</time>
      </trkpt>
      <trkpt lat="48.94892" lon="7.54995">
        <ele>227</ele>
        <time>2016-08-22T16:39:58Z</time>
      </trkpt>
      <trkpt lat="48.94931" lon="7.54957">
        <ele>216</ele>
        <time>2016-08-22T16:40:18Z</time>
      </trkpt>
      <trkpt lat="48.94926" lon="7.54914">
        <ele>206</ele>
        <time>2016-08-22T16:40:38Z</time>
      </trkpt>
      <trkpt lat="48.94961" lon="7.54899">
        <ele>207</ele>
        <time>2016-08-22T16:40:58Z</time>
      </trkpt>
      <trkpt lat="48.94985" lon="7.54819">
        <ele>207</ele>
        <time>2016-08-22T16:41:18Z</time>
      </trkpt>
      <trkpt lat="48.94991" lon="7.54632">
        <ele>208</ele>
        <time>2016-08-22T16:41:38Z</time>
      </trkpt>
      <trkpt lat="48.94981" lon="7.54524">
        <ele>208</ele>
        <time>2016-08-22T16:41:58Z</time>
      </trkpt>
      <trkpt lat="48.95014" lon="7.54413">
        <ele>207</ele>
        <time>2016-08-22T16:42:18Z</time>
      </trkpt>
      <trkpt lat="48.94972" lon="7.54348">
        <ele>202</ele>
        <time>2016-08-22T16:42:38Z</time>
      </trkpt>
      <trkpt lat="48.94977" lon="7.54257">
        <ele>201</ele>
        <time>2016-08-22T16:42:58Z</time>
      </trkpt>
      <trkpt lat="48.94963" lon="7.54213">
        <ele>207</ele>
        <time>2016-08-22T16:43:18Z</time>
      </trkpt>
      <trkpt lat="48.94979" lon="7.54138">
        <ele>216</ele>
        <time>2016-08-22T16:43:38Z</time>
      </trkpt>
      <trkpt lat="48.95084" lon="7.54089">
        <ele>211</ele>
        <time>2016-08-22T16:43:58Z</time>
      </trkpt>
      <trkpt lat="48.95145" lon="7.5407">
        <ele>213</ele>
        <time>2016-08-22T16:44:18Z</time>
      </trkpt>
      <trkpt lat="48.95228" lon="7.54015">
        <ele>205</ele>
        <time>2016-08-22T16:44:38Z</time>
      </trkpt>
      <trkpt lat="48.95278" lon="7.53938">
        <ele>205</ele>
        <time>2016-08-22T16:44:58Z</time>
      </trkpt>
      <trkpt lat="48.95261" lon="7.53893">
        <ele>210</ele>
        <time>2016-08-22T16:45:18Z</time>
      </trkpt>
      <trkpt lat="48.95234" lon="7.53839">
        <ele>212</ele>
        <time>2016-08-22T16:45:38Z</time>
      </trkpt>
      <trkpt lat="48.9522" lon="7.53759">
        <ele>213</ele>
        <time>2016-08-22T16:45:58Z</time>
      </trkpt>
      <trkpt lat="48.95202" lon="7.53707">
        <ele>217</ele>
        <time>2016-08-22T16:46:18Z</time>
      </trkpt>
      <trkpt lat="48.95099" lon="7.53693">
        <ele>227</ele>
        <time>2016-08-22T16:46:38Z</time>
      </trkpt>
      <trkpt lat="48.95101" lon="7.53653">
        <ele>229</ele>
        <time>2016-08-22T16:46:58Z</time>
      </trkpt>
      <trkpt lat="48.95037" lon="7.53602">
        <ele>229</ele>
        <time>2016-08-22T16:47:18Z</time>
      </trkpt>
      <trkpt lat="48.94976" lon="7.53534">
        <ele>232</ele>
        <time>2016-08-22T16:47:38Z</time>
      </trkpt>
      <trkpt lat="48.94879" lon="7.53336">
        <ele>248</ele>
        <time>2016-08-22T16:47:58Z</time>
      </trkpt>
      <trkpt lat="48.94803" lon="7.53091">
        <ele>285</ele>
        <time>2016-08-22T16:48:18Z</time>
      </trkpt>
      <trkpt lat="48.94708" lon="7.5313">
        <ele>281</ele>
        <time>2016-08-22T16:48:38Z</time>
      </trkpt>
      <trkpt lat="48.94639" lon="7.5299">
        <ele>303</ele>
        <time>2016-08-22T16:48:58Z</time>
      </trkpt>
      <trkpt lat="48.94615" lon="7.52841">
        <ele>320</ele>
        <time>2016-08-22T16:49:18Z</time>
      </trkpt>
      <trkpt lat="48.94509" lon="7.52622">
        <ele>349</ele>
        <time>2016-08-22T16:49:38Z</time>
      </trkpt>
      <trkpt lat="48.94481" lon="7.52515">
        <ele>357</ele>
        <time>2016-08-22T16:49:58Z</time>
      </trkpt>
      <trkpt lat="48.94448" lon="7.52476">
        <ele>358</ele>
        <time>2016-08-22T16:50:18Z</time>
      </trkpt>
      <trkpt lat="48.94432" lon="7.5236">
        <ele>357</ele>
        <time>2016-08-22T16:50:38Z</time>
      </trkpt>
      <trkpt lat="48.9431" lon="7.52306">
        <ele>371</ele>
        <time>2016-08-22T16:50:58Z</time>
      </trkpt>
      <trkpt lat="48.94188" lon="7.52326">
        <ele>378</ele>
        <time>2016-08-22T16:51:18Z</time>
      </trkpt>
      <trkpt lat="48.94099" lon="7.52283">
        <ele>380</ele>
        <time>2016-08-22T16:51:38Z</time>
      </trkpt>
      <trkpt lat="48.93989" lon="7.52102">
        <ele>395</ele>
        <time>2016-08-22T16:51:58Z</time>
      </trkpt>
      <trkpt lat="48.93987" lon="7.51862">
        <ele>382</ele>
        <time>2016-08-22T16:52:18Z</time>
      </trkpt>
      <trkpt lat="48.94057" lon="7.51701">
        <ele>385</ele>
        <time>2016-08-22T16:52:38Z</time>
      </trkpt>
      <trkpt lat="48.94131" lon="7.51579">
        <ele>395</ele>
        <time>2016-08-22T16:52:58Z</time>
      </trkpt>
      <trkpt lat="48.94227" lon="7.51428">
        <ele>395</ele>
        <time>2016-08-22T16:53:18Z</time>
      </trkpt>
      <trkpt lat="48.94275" lon="7.51396">
        <ele>392</ele>
        <time>2016-08-22T16:53:38Z</time>
      </trkpt>
      <trkpt lat="48.9434" lon="7.51265">
        <ele>384</ele>
        <time>2016-08-22T16:53:58Z</time>
      </trkpt>
      <trkpt lat="48.94329" lon="7.51149">
        <ele>390</ele>
        <time>2016-08-22T16:54:18Z</time>
      </trkpt>
      <trkpt lat="48.94199" lon="7.5104">
        <ele>372</ele>
        <time>2016-08-22T16:54:38Z</time>
      </trkpt>
      <trkpt lat="48.9419" lon="7.50957">
        <ele>362</ele>
        <time>2016-08-22T16:54:58Z</time>
      </trkpt>
      <trkpt lat="48.9421" lon="7.5082">
        <ele>354</ele>
        <time>2016-08-22T16:55:18Z</time>
      </trkpt>
      <trkpt lat="48.9424" lon="7.50699">
        <ele>348</ele>
        <time>2016-08-22T16:55:38Z</time>
      </trkpt>
      <trkpt lat="48.94195" lon="7.50581">
        <ele>351</ele>
        <time>2016-08-22T16:55:58Z</time>
      </trkpt>
      <trkpt lat="48.94167" lon="7.50574">
        <ele>345</ele>
        <time>2016-08-22T16:56:18Z</time>
      </trkpt>
      <trkpt lat="48.9413" lon="7.50537">
        <ele>344</ele>
        <time>2016-08-22T16:56:38Z</time>
      </trkpt>
      <trkpt lat="48.94077" lon="7.50547">
        <ele>334</ele>
        <time>2016-08-22T16:56:58Z</time>
      </trkpt>
      <trkpt lat="48.94037" lon="7.5052">
        <ele>335</ele>
        <time>2016-08-22T16:57:18Z</time>
      </trkpt>
      <trkpt lat="48.93967" lon="7.50517">
        <ele>325</ele>
        <time>2016-08-22T16:57:38Z</time>
      </trkpt>
      <trkpt lat="48.93907" lon="7.50536">
        <ele>308</ele>
        <time>2016-08-22T16:57:58Z</time>
      </trkpt>
      <trkpt lat="48.93837" lon="7.50454">
        <ele>315</ele>
        <time>2016-08-22T16:58:18Z</time>
      </trkpt>
      <trkpt lat="48.93786" lon="7.50373">
        <ele>303</ele>
        <time>2016-08-22T16:58:38Z</time>
      </trkpt>
      <trkpt lat="48.93549" lon="7.50214">
        <ele>258</ele>
        <time>2016-08-22T16:58:58Z</time>
      </trkpt>
      <trkpt lat="48.93431" lon="7.49978">
        <ele>244</ele>
        <time>2016-08-22T16:59:18Z</time>
      </trkpt>
      <trkpt lat="48.93333" lon="7.49866">
        <ele>229</ele>
        <time>2016-08-22T16:59:38Z</time>
      </trkpt>
      <trkpt lat="48.93305" lon="7.49654">
        <ele>217</ele>
        <time>2016-08-22T16:59:58Z</time>
      </trkpt>
      <trkpt lat="48.93336" lon="7.49499">
        <ele>210</ele>
        <time>2016-08-22T17:00:18Z</time>
      </trkpt>
      <trkpt lat="48.93302" lon="7.49416">
        <ele>215</ele>
        <time>2016-08-22T17:00:38Z</time>
      </trkpt>
      <trkpt lat="48.93307" lon="7.49298">
        <ele>220</ele>
        <time>2016-08-22T17:00:58Z</time>
      </trkpt>
      <trkpt lat="48.93284" lon="7.49186">
        <ele>224</ele>
        <time>2016-08-22T17:01:18Z</time>
      </trkpt>
      <trkpt lat="48.93201" lon="7.48977">
        <ele>231</ele>
        <time>2016-08-22T17:01:38Z</time>
      </trkpt>
      <trkpt lat="48.9313" lon="7.48872">
        <ele>239</ele>
        <time>2016-08-22T17:01:58Z</time>
      </trkpt>
      <trkpt lat="48.93053" lon="7.48638">
        <ele>243</ele>
        <time>2016-08-22T17:02:18Z</time>
      </trkpt>
      <trkpt lat="48.92953" lon="7.48519">
        <ele>249</ele>
        <time>2016-08-22T17:02:38Z</time>
      </trkpt>
      <trkpt lat="48.92854" lon="7.48527">
        <ele>253</ele>
        <time>2016-08-22T17:02:58Z</time>
      </trkpt>
      <trkpt lat="48.92754" lon="7.48568">
        <ele>257</ele>
        <time>2016-08-22T17:03:18Z</time>
      </trkpt>
      <trkpt lat="48.92712" lon="7.48576">
        <ele>261</ele>
        <time>2016-08-22T17:03:38Z</time>
      </trkpt>
      <trkpt lat="48.92452" lon="7.48658">
        <ele>288</ele>
        <time>2016-08-22T17:03:58Z</time>
      </trkpt>
      <trkpt lat="48.92263" lon="7.48258">
        <ele>325</ele>
        <time>2016-08-22T17:04:18Z</time>
      </trkpt>
      <trkpt lat="48.92233" lon="7.48238">
        <ele>332</ele>
        <time>2016-08-22T17:04:38Z</time>
      </trkpt>
      <trkpt lat="48.92218" lon="7.48145">
        <ele>332</ele>
        <time>2016-08-22T17:04:58Z</time>
      </trkpt>
      <trkpt lat="48.92164" lon="7.48186">
        <ele>338</ele>
        <time>2016-08-22T17:05:18Z</time>
      </trkpt>
      <trkpt lat="48.9208" lon="7.48195">
        <ele>333</ele>
        <time>2016-08-22T17:05:38Z</time>
      </trkpt>
      <trkpt lat="48.92058" lon="7.47975">
        <ele>326</ele>
        <time>2016-08-22T17:05:58Z</time>
      </trkpt>
      <trkpt lat="48.92028" lon="7.4797">
        <ele>325</ele>
        <time>2016-08-22T17:06:18Z</time>
      </trkpt>
      <trkpt lat="48.92019" lon="7.47914">
        <ele>323</ele>
        <time>2016-08-22T17:06:38Z</time>
      </trkpt>
      <trkpt lat="48.91933" lon="7.47856">
        <ele>311</ele>
        <time>2016-08-22T17:06:58Z</time>
      </trkpt>
      <trkpt lat="48.91888" lon="7.47742">
        <ele>296</ele>
        <time>2016-08-22T17:07:18Z</time>
      </trkpt>
      <trkpt lat="48.91861" lon="7.47618">
        <ele>282</ele>
        <time>2016-08-22T17:07:38Z</time>
      </trkpt>
      <trkpt lat="48.91802" lon="7.47587">
        <ele>268</ele>
        <time>2016-08-22T17:07:58Z</time>
      </trkpt>
      <trkpt lat="48.91701" lon="7.47553">
        <ele>258</ele>
        <time>2016-08-22T17:08:18Z</time>
      </trkpt>
      <trkpt lat="48.91674" lon="7.47519">
        <ele>259</ele>
        <time>2016-08-22T17:08:38Z</time>
      </trkpt>
      <trkpt lat="48.9173" lon="7.47495">
        <ele>268</ele>
        <time>2016-08-22T17:08:58Z</time>
      </trkpt>
      <trkpt lat="48.91744" lon="7.47457">
        <ele>271</ele>
        <time>2016-08-22T17:09:18Z</time>
      </trkpt>
      <trkpt lat="48.91791" lon="7.47423">
        <ele>274</ele>
        <time>2016-08-22T17:09:38Z</time>
      </trkpt>
      <trkpt lat="48.91798" lon="7.4739">
        <ele>282</ele>
        <time>2016-08-22T17:09:58Z</time>
      </trkpt>
      <trkpt lat="48.9199" lon="7.47182">
        <ele>293</ele>
        <time>2016-08-22T17:10:18Z</time>
      </trkpt>
      <trkpt lat="48.92064" lon="7.46981">
        <ele>303</ele>
        <time>2016-08-22T17:10:38Z</time>
      </trkpt>
      <trkpt lat="48.92123" lon="7.47004">
        <ele>293</ele>
        <time>2016-08-22T17:10:58Z</time>
      </trkpt>
      <trkpt lat="48.9216" lon="7.46963">
        <ele>300</ele>
        <time>2016-08-22T17:11:18Z</time>
      </trkpt>
      <trkpt lat="48.92111" lon="7.46966">
        <ele>299</ele>
        <time>2016-08-22T17:11:38Z</time>
      </trkpt>
      <trkpt lat="48.9207" lon="7.46938">
        <ele>307</ele>
        <time>2016-08-22T17:11:58Z</time>
      </trkpt>
      <trkpt lat="48.92045" lon="7.46884">
        <ele>312</ele>
        <time>2016-08-22T17:12:18Z</time>
      </trkpt>
      <trkpt lat="48.91976" lon="7.46894">
        <ele>321</ele>
        <time>2016-08-22T17:12:38Z</time>
      </trkpt>
      <trkpt lat="48.91929" lon="7.46831">
        <ele>320</ele>
        <time>2016-08-22T17:12:58Z</time>
      </trkpt>
      <trkpt lat="48.91888" lon="7.46828">
        <ele>320</ele>
        <time>2016-08-22T17:13:18Z</time>
      </trkpt>
      <trkpt lat="48.9179" lon="7.46583">
        <ele>325</ele>
        <time>2016-08-22T17:13:38Z</time>
      </trkpt>
      <trkpt lat="48.91721" lon="7.46362">
        <ele>337</ele>
        <time>2016-08-22T17:13:58Z</time>
      </trkpt>
      <trkpt lat="48.91606" lon="7.46345">
        <ele>336</ele>
        <time>2016-08-22T17:14:18Z</time>
      </trkpt>
      <trkpt lat="48.91693" lon="7.46082">
        <ele>333</ele>
        <time>2016-08-22T17:14:38Z</time>
      </trkpt>
      <trkpt lat="48.91835" lon="7.45744">
        <ele>317</ele>
        <time>2016-08-22T17:14:58Z</time>
      </trkpt>
      <trkpt lat="48.91864" lon="7.45572">
        <ele>314</ele>
        <time>2016-08-22T17:15:18Z</time>
      </trkpt>
      <trkpt lat="48.91781" lon="7.45124">
        <ele>296</ele>
        <time>2016-08-22T17:15:38Z</time>
      </trkpt>
      <trkpt lat="48.91776" lon="7.44822">
        <ele>294</ele>
        <time>2016-08-22T17:15:58Z</time>
      </trkpt>
      <trkpt lat="48.91748" lon="7.44687">
        <ele>288</ele>
        <time>2016-08-22T17:16:18Z</time>
      </trkpt>
      <trkpt lat="48.91752" lon="7.44493">
        <ele>305</ele>
        <time>2016-08-22T17:16:38Z</time>
      </trkpt>
      <trkpt lat="48.91705" lon="7.44197">
        <ele>280</ele>
        <time>2016-08-22T17:16:58Z</time>
      </trkpt>
      <trkpt lat="48.91616" lon="7.43987">
        <ele>252</ele>
        <time>2016-08-22T17:17:18Z</time>
      </trkpt>
      <trkpt lat="48.91515" lon="7.43914">
        <ele>242</ele>
        <time>2016-08-22T17:17:38Z</time>
      </trkpt>
      <trkpt lat="48.91498" lon="7.43858">
        <ele>240</ele>
        <time>2016-08-22T17:17:58Z</time>
      </trkpt>
      <trkpt lat="48.91412" lon="7.43753">
        <ele>244</ele>
        <time>2016-08-22T17:18:18Z</time>
      </trkpt>
      <trkpt lat="48.91307" lon="7.43559">
        <ele>229</ele>
        <time>2016-08-22T17:18:38Z</time>
      </trkpt>
      <trkpt lat="48.91065" lon="7.43139">
        <ele>211</ele>
        <time>2016-08-22T17:18:58Z</time>
      </trkpt>
      <trkpt lat="48.91105" lon="7.42977">
        <ele>210</ele>
        <time>2016-08-22T17:19:18Z</time>
      </trkpt>
      <trkpt lat="48.91146" lon="7.42858">
        <ele>209</ele>
        <time>2016-08-22T17:19:38Z</time>
      </trkpt>
      <trkpt lat="48.9118" lon="7.42717">
        <ele>209</ele>
        <time>2016-08-22T17:19:58Z</time>
      </trkpt>
      <trkpt lat="48.91159" lon="7.42704">
        <ele>209</ele>
        <time>2016-08-22T17:20:18Z</time>
      </trkpt>
      <trkpt lat="48.91118" lon="7.42751">
        <ele>209</ele>
        <time>2016-08-22T17:20:38Z</time>
      </trkpt>
      <trkpt lat="48.91088" lon="7.42714">
        <ele>208</ele>
        <time>2016-08-22T17:20:58Z</time>
      </trkpt>
      <trkpt lat="48.91025" lon="7.42525">
        <ele>205</ele>
        <time>2016-08-22T17:21:18Z</time>
      </trkpt>
      <trkpt lat="48.91024" lon="7.42451">
        <ele>203</ele>
        <time>2016-08-22T17:21:38Z</time>
      </trkpt>
      <trkpt lat="48.91077" lon="7.42167">
        <ele>200</ele>
        <time>2016-08-22T17:21:58Z</time>
      </trkpt>
      <trkpt lat="48.91049" lon="7.42131">
        <ele>201</ele>
        <time>2016-08-22T17:22:18Z</time>
      </trkpt>
      <trkpt lat="48.91001" lon="7.42017">
        <ele>202</ele>
        <time>2016-08-22T17:22:38Z</time>
      </trkpt>
      <trkpt lat="48.91063" lon="7.41848">
        <ele>204</ele>
        <time>2016-08-22T17:22:58Z</time>
      </trkpt>
      <trkpt lat="48.91044" lon="7.41762">
        <ele>206</ele>
        <time>2016-08-22T17:23:18Z</time>
      </trkpt>
      <trkpt lat="48.90977" lon="7.41731">
        <ele>209</ele>
        <time>2016-08-22T17:23:38Z</time>
      </trkpt>
      <trkpt lat="48.90943" lon="7.4173">
        <ele>210</ele>
        <time>2016-08-22T17:23:58Z</time>
      </trkpt>
      <trkpt lat="48.90796" lon="7.41689">
        <ele>218</ele>
        <time>2016-08-22T17:24:18Z</time>
      </trkpt>
      <trkpt lat="48.90687" lon="7.41687">
        <ele>227</ele>
        <time>2016-08-22T17:24:38Z</time>
      </trkpt>
      <trkpt lat="48.90673" lon="7.41621">
        <ele>228</ele>
        <time>2016-08-22T17:24:58Z</time>
      </trkpt>
      <trkpt lat="48.90642" lon="7.41579">
        <ele>234</ele>
        <time>2016-08-22T17:25:18Z</time>
      </trkpt>
      <trkpt lat="48.90607" lon="7.41526">
        <ele>237</ele>
        <time>2016-08-22T17:25:38Z</time>
      </trkpt>
      <trkpt lat="48.90588" lon="7.41412">
        <ele>241</ele>
        <time>2016-08-22T17:25:58Z</time>
      </trkpt>
      <trkpt lat="48.90594" lon="7.41284">
        <ele>239</ele>
        <time>2016-08-22T17:26:18Z</time>
      </trkpt>
      <trkpt lat="48.9059" lon="7.41181">
        <ele>241</ele>
        <time>2016-08-22T17:26:38Z</time>
      </trkpt>
      <trkpt lat="48.90565" lon="7.41038">
        <ele>238</ele>
        <time>2016-08-22T17:26:58Z</time>
      </trkpt>
      <trkpt lat="48.90539" lon="7.40817">
        <ele>233</ele>
        <time>2016-08-22T17:27:18Z</time>
      </trkpt>
      <trkpt lat="48.90485" lon="7.40742">
        <ele>233</ele>
        <time>2016-08-22T17:27:38Z</time>
      </trkpt>
      <trkpt lat="48.90415" lon="7.407">
        <ele>239</ele>
        <time>2016-08-22T17:27:58Z</time>
      </trkpt>
      <trkpt lat="48.9035" lon="7.40717">
        <ele>242</ele>
        <time>2016-08-22T17:28:18Z</time>
      </trkpt>
      <trkpt lat="48.90275" lon="7.40719">
        <ele>249</ele>
        <time>2016-08-22T17:28:38Z</time>
      </trkpt>
      <trkpt lat="48.90136" lon="7.40659">
        <ele>249</ele>
        <time>2016-08-22T17:28:58Z</time>
      </trkpt>
      <trkpt lat="48.90098" lon="7.40609">
        <ele>249</ele>
        <time>2016-08-22T17:29:18Z</time>
      </trkpt>
      <trkpt lat="48.90068" lon="7.40487">
        <ele>257</ele>
        <time>2016-08-22T17:29:38Z</time>
      </trkpt>
      <trkpt lat="48.90018" lon="7.40395">
        <ele>263</ele>
        <time>2016-08-22T17:29:58Z</time>
      </trkpt>
      <trkpt lat="48.89988" lon="7.40321">
        <ele>266</ele>
        <time>2016-08-22T17:30:18Z</time>
      </trkpt>
      <trkpt lat="48.89835" lon="7.40227">
        <ele>281</ele>
        <time>2016-08-22T17:30:38Z</time>
      </trkpt>
      <trkpt lat="48.89724" lon="7.40075">
        <ele>293</ele>
        <time>2016-08-22T17:30:58Z</time>
      </trkpt>
      <trkpt lat="48.89673" lon="7.3999">
        <ele>294</ele>
        <time>2016-08-22T17:31:18Z</time>
      </trkpt>
      <trkpt lat="48.89638" lon="7.39956">
        <ele>295</ele>
        <time>2016-08-22T17:31:38Z</time>
      </trkpt>
      <trkpt lat="48.89579" lon="7.39819">
        <ele>296</ele>
        <time>2016-08-22T17:31:58Z</time>
      </trkpt>
      <trkpt lat="48.89501" lon="7.39793">
        <ele>298</ele>
        <time>2016-08-22T17:32:18Z</time>
      </trkpt>
      <trkpt lat="48.89432" lon="7.39798">
        <ele>297</ele>
        <time>2016-08-22T17:32:38Z</time>
      </trkpt>
      <trkpt lat="48.89372" lon="7.3977">
        <ele>294</ele>
        <time>2016-08-22T17:32:58Z</time>
      </trkpt>
      <trkpt lat="48.89246" lon="7.39762">
        <ele>282</ele>
        <time>2016-08-22T17:33:18Z</time>
      </trkpt>
      <trkpt lat="48.89169" lon="7.3965">
        <ele>269</ele>
        <time>2016-08-22T17:33:38Z</time>
      </trkpt>
      <trkpt lat="48.89173" lon="7.39515">
        <ele>263</ele>
        <time>2016-08-22T17:33:58Z</time>
      </trkpt>
      <trkpt lat="48.89161" lon="7.39438">
        <ele>257</ele>
        <time>2016-08-22T17:34:18Z</time>
      </trkpt>
      <trkpt lat="48.8895" lon="7.39022">
        <ele>246</ele>
        <time>2016-08-22T17:34:38Z</time>
      </trkpt>
      <trkpt lat="48.88856" lon="7.38925">
        <ele>246</ele>
        <time>2016-08-22T17:34:58Z</time>
      </trkpt>
      <trkpt lat="48.88866" lon="7.38849">
        <ele>241</ele>
        <time>2016-08-22T17:35:18Z</time>
      </trkpt>
      <trkpt lat="48.88798" lon="7.38824">
        <ele>240</ele>
        <time>2016-08-22T17:35:38Z</time>
      </trkpt>
      <trkpt lat="48.88387" lon="7.38335">
        <ele>229</ele>
        <time>2016-08-22T17:35:58Z</time>
      </trkpt>
      <trkpt lat="48.88109" lon="7.37878">
        <ele>260</ele>
        <time>2016-08-22T17:36:18Z</time>
      </trkpt>
      <trkpt lat="48.87995" lon="7.37742">
        <ele>256</ele>
        <time>2016-08-22T17:36:38Z</time>
      </trkpt>
      <trkpt lat="48.87806" lon="7.37578">
        <ele>254</ele>
        <time>2016-08-22T17:36:58Z</time>
      </trkpt>
      <trkpt lat="48.87764" lon="7.37573">
        <ele>250</ele>
        <time>2016-08-22T17:37:18Z</time>
      </trkpt>
      <trkpt lat="48.87698" lon="7.37334">
        <ele>246</ele>
        <time>2016-08-22T17:37:38Z</time>
      </trkpt>
      <trkpt lat="48.87678" lon="7.37043">
        <ele>244</ele>
        <time>2016-08-22T17:37:58Z</time>
      </trkpt>
      <trkpt lat="48.87659" lon="7.3691">
        <ele>239</ele>
        <time>2016-08-22T17:38:18Z</time>
      </trkpt>
      <trkpt lat="48.87595" lon="7.36807">
        <ele>235</ele>
        <time>2016-08-22T17:38:38Z</time>
      </trkpt>
      <trkpt lat="48.87573" lon="7.36507">
        <ele>231</ele>
        <time>2016-08-22T17:38:58Z</time>
      </trkpt>
      <trkpt lat="48.87544" lon="7.36384">
        <ele>227</ele>
        <time>2016-08-22T17:39:18Z</time>
      </trkpt>
      <trkpt lat="48.87568" lon="7.36007">
        <ele>229</ele>
        <time>2016-08-22T17:39:38Z</time>
      </trkpt>
      <trkpt lat="48.87563" lon="7.35949">
        <ele>229</ele>
        <time>2016-08-22T17:39:58Z</time>
      </trkpt>
      <trkpt lat="48.8751" lon="7.35985">
        <ele>229</ele>
        <time>2016-08-22T17:40:18Z</time>
      </trkpt>
      <trkpt lat="48.87507" lon="7.35861">
        <ele>231</ele>
        <time>2016-08-22T17:40:38Z</time>
      </trkpt>
      <trkpt lat="48.87487" lon="7.3578">
        <ele>233</ele>
        <time>2016-08-22T17:40:58Z</time>
      </trkpt>
      <trkpt lat="48.87479" lon="7.35481">
        <ele>241</ele>
        <time>2016-08-22T17:41:18Z</time>
      </trkpt>
      <trkpt lat="48.87304" lon="7.35393">
        <ele>259</ele>
        <time>2016-08-22T17:41:38Z</time>
      </trkpt>
      <trkpt lat="48.87225" lon="7.35304">
        <ele>273</ele>
        <time>2016-08-22T17:41:58Z</time>
      </trkpt>
      <trkpt lat="48.87171" lon="7.35191">
        <ele>283</ele>
        <time>2016-08-22T17:42:18Z</time>
      </trkpt>
      <trkpt lat="48.87108" lon="7.34953">
        <ele>296</ele>
        <time>2016-08-22T17:42:38Z</time>
      </trkpt>
      <trkpt lat="48.87031" lon="7.34822">
        <ele>304</ele>
        <time>2016-08-22T17:42:58Z</time>
      </trkpt>
      <trkpt lat="48.87014" lon="7.34689">
        <ele>306</ele>
        <time>2016-08-22T17:43:18Z</time>
      </trkpt>
      <trkpt lat="48.8696" lon="7.34617">
        <ele>304</ele>
        <time>2016-08-22T17:43:38Z</time>
      </trkpt>
      <trkpt lat="48.86936" lon="7.34423">
        <ele>319</ele>
        <time>2016-08-22T17:43:58Z</time>
      </trkpt>
      <trkpt lat="48.86834" lon="7.34007">
        <ele>327</ele>
        <time>2016-08-22T17:44:18Z</time>
      </trkpt>
      <trkpt lat="48.86741" lon="7.33769">
        <ele>336</ele>
        <time>2016-08-22T17:44:38Z</time>
      </trkpt>
      <trkpt lat="48.86633" lon="7.33599">
        <ele>343</ele>
        <time>2016-08-22T17:44:58Z</time>
      </trkpt>
      <trkpt lat="48.86575" lon="7.33608">
        <ele>346</ele>
        <time>2016-08-22T17:45:18Z</time>
      </trkpt>
      <trkpt lat="48.86496" lon="7.33518">
        <ele>356</ele>
        <time>2016-08-22T17:45:38Z</time>
      </trkpt>
      <trkpt lat="48.86401" lon="7.33455">
        <ele>362</ele>
        <time>2016-08-22T17:45:58Z</time>
      </trkpt>
      <trkpt lat="48.86391" lon="7.3348">
        <ele>361</ele>
        <time>2016-08-22T17:46:18Z</time>
      </trkpt>
      <trkpt lat="48.86242" lon="7.33528">
        <ele>355</ele>
        <time>2016-08-22T17:46:38Z</time>
      </trkpt>
      <trkpt lat="48.86187" lon="7.3352">
        <ele>355</ele>
        <time>2016-08-22T17:46:58Z</time>
      </trkpt>
      <trkpt lat="48.86136" lon="7.33485">
        <ele>364</ele>
        <time>2016-08-22T17:47:18Z</time>
      </trkpt>
      <trkpt lat="48.86151" lon="7.33454">
        <ele>364</ele>
        <time>2016-08-22T17:47:38Z</time>
      </trkpt>
      <trkpt lat="48.86153" lon="7.33378">
        <ele>366</ele>
        <time>2016-08-22T17:47:58Z</time>
      </trkpt>
      <trkpt lat="48.86128" lon="7.33251">
        <ele>367</ele>
        <time>2016-08-22T17:48:18Z</time>
      </trkpt>
      <trkpt lat="48.86104" lon="7.33108">
        <ele>362</ele>
        <time>2016-08-22T17:48:38Z</time>
      </trkpt>
      <trkpt lat="48.86115" lon="7.32932">
        <ele>357</ele>
        <time>2016-08-22T17:48:58Z</time>
      </trkpt>
      <trkpt lat="48.86032" lon="7.32427">
        <ele>347</ele>
        <time>2016-08-22T17:49:18Z</time>
      </trkpt>
      <trkpt lat="48.85962" lon="7.32152">
        <ele>339</ele>
        <time>2016-08-22T17:49:38Z</time>
      </trkpt>
      <trkpt lat="48.85954" lon="7.32054">
        <ele>337</ele>
        <time>2016-08-22T17:49:58Z</time>
      </trkpt>
    </trkseg>
  </trk>
</gpx>